Wetterdaten: Montag, 10.04.2023
Datum Zeit Temp. Aussen Temp. o. S. Temp +5cm Feuchte Auss Luftdruck Regen Sonnenschein Regendauer Solar Windben Empfang
10.04.2023 00:00 9,3 C 8,3 C 5,0 C 72 % 1022,7 hPa 0,0 l/m 0 min 0 min 0 W/m 6,4 km/h (2 Bft) 97,30 %
10.04.2023 00:02 9,3 C 8,3 C 5,0 C 72 % 1022,8 hPa 0,0 l/m 0 min 0 min 0 W/m 6,4 km/h (2 Bft) 94,74 %
10.04.2023 00:04 9,3 C 8,3 C 5,0 C 72 % 1022,8 hPa 0,0 l/m 0 min 0 min 0 W/m 6,4 km/h (2 Bft) 95,74 %
10.04.2023 00:08 9,2 C 8,3 C 5,0 C 72 % 1022,9 hPa 0,0 l/m 0 min 0 min 0 W/m 6,4 km/h (2 Bft) 98,94 %
10.04.2023 00:10 9,2 C 8,3 C 5,0 C 72 % 1022,8 hPa 0,0 l/m 0 min 0 min 0 W/m 6,4 km/h (2 Bft) 97,87 %
10.04.2023 00:12 9,2 C 8,3 C 5,0 C 72 % 1022,9 hPa 0,0 l/m 0 min 0 min 0 W/m 12,9 km/h (3 Bft) 97,87 %
10.04.2023 00:14 9,2 C 8,3 C 5,0 C 72 % 1022,9 hPa 0,0 l/m 0 min 0 min 0 W/m 12,9 km/h (3 Bft) 97,87 %
10.04.2023 00:16 9,2 C 8,3 C 5,0 C 72 % 1022,9 hPa 0,0 l/m 0 min 0 min 0 W/m 6,4 km/h (2 Bft) 95,74 %
10.04.2023 00:18 9,1 C 7,8 C 5,0 C 72 % 1022,9 hPa 0,0 l/m 0 min 0 min 0 W/m 3,2 km/h (1 Bft) 95,74 %
10.04.2023 00:20 9,1 C 7,8 C 5,0 C 73 % 1022,8 hPa 0,0 l/m 0 min 0 min 0 W/m 12,9 km/h (3 Bft) 97,92 %
10.04.2023 00:22 9,1 C 7,8 C 5,0 C 73 % 1022,8 hPa 0,0 l/m 0 min 0 min 0 W/m 6,4 km/h (2 Bft) 93,48 %
10.04.2023 00:24 9,1 C 7,8 C 5,0 C 73 % 1022,9 hPa 0,0 l/m 0 min 0 min 0 W/m 6,4 km/h (2 Bft) 97,92 %
10.04.2023 00:26 9,1 C 7,8 C 5,0 C 73 % 1022,9 hPa 0,0 l/m 0 min 0 min 0 W/m 6,4 km/h (2 Bft) 97,92 %
10.04.2023 00:28 9,0 C 7,8 C 4,4 C 73 % 1023,0 hPa 0,0 l/m 0 min 0 min 0 W/m 6,4 km/h (2 Bft) 97,87 %
10.04.2023 00:30 9,0 C 7,8 C 4,4 C 73 % 1023,0 hPa 0,0 l/m 0 min 0 min 0 W/m 6,4 km/h (2 Bft) 97,87 %
10.04.2023 00:32 8,9 C 7,8 C 4,4 C 73 % 1023,0 hPa 0,0 l/m 0 min 0 min 0 W/m 6,4 km/h (2 Bft) 97,87 %
10.04.2023 00:34 8,9 C 7,8 C 4,4 C 73 % 1023,0 hPa 0,0 l/m 0 min 0 min 0 W/m 16,1 km/h (3 Bft) 95,65 %
10.04.2023 00:36 8,9 C 7,8 C 4,4 C 73 % 1023,0 hPa 0,0 l/m 0 min 0 min 0 W/m 6,4 km/h (2 Bft) 97,87 %
10.04.2023 00:38 8,9 C 7,8 C 4,4 C 73 % 1023,0 hPa 0,0 l/m 0 min 0 min 0 W/m 6,4 km/h (2 Bft) 100,00 %
10.04.2023 00:40 8,8 C 7,8 C 4,4 C 73 % 1022,9 hPa 0,0 l/m 0 min 0 min 0 W/m 3,2 km/h (1 Bft) 95,74 %
10.04.2023 00:42 8,8 C 7,8 C 4,4 C 73 % 1023,0 hPa 0,0 l/m 0 min 0 min 0 W/m 6,4 km/h (2 Bft) 97,87 %
10.04.2023 00:44 8,8 C 7,8 C 4,4 C 74 % 1023,0 hPa 0,0 l/m 0 min 0 min 0 W/m 3,2 km/h (1 Bft) 100,00 %
10.04.2023 00:46 8,8 C 7,8 C 4,4 C 74 % 1023,1 hPa 0,0 l/m 0 min 0 min 0 W/m 6,4 km/h (2 Bft) 100,00 %
10.04.2023 00:48 8,8 C 7,8 C 4,4 C 74 % 1023,1 hPa 0,0 l/m 0 min 0 min 0 W/m 6,4 km/h (2 Bft) 100,00 %
10.04.2023 00:50 8,8 C 7,8 C 4,4 C 74 % 1023,1 hPa 0,0 l/m 0 min 0 min 0 W/m 3,2 km/h (1 Bft) 100,00 %
10.04.2023 00:52 8,7 C 7,8 C 4,4 C 74 % 1023,1 hPa 0,0 l/m 0 min 0 min 0 W/m 6,4 km/h (2 Bft) 100,00 %
10.04.2023 00:54 8,7 C 7,8 C 4,4 C 74 % 1023,1 hPa 0,0 l/m 0 min 0 min 0 W/m 3,2 km/h (1 Bft) 100,00 %
10.04.2023 00:56 8,7 C 7,8 C 4,4 C 74 % 1023,0 hPa 0,0 l/m 0 min 0 min 0 W/m 3,2 km/h (1 Bft) 100,00 %
10.04.2023 00:58 8,7 C 7,8 C 4,4 C 74 % 1023,0 hPa 0,0 l/m 0 min 0 min 0 W/m 3,2 km/h (1 Bft) 97,87 %
10.04.2023 01:00 8,6 C 7,8 C 4,4 C 74 % 1023,0 hPa 0,0 l/m 0 min 0 min 0 W/m 6,4 km/h (2 Bft) 100,00 %
10.04.2023 01:02 8,6 C 7,8 C 4,4 C 74 % 1023,0 hPa 0,0 l/m 0 min 0 min 0 W/m 6,4 km/h (2 Bft) 100,00 %
10.04.2023 01:04 8,6 C 7,8 C 4,4 C 74 % 1023,0 hPa 0,0 l/m 0 min 0 min 0 W/m 6,4 km/h (2 Bft) 100,00 %
10.04.2023 01:06 8,6 C 7,8 C 4,4 C 74 % 1023,0 hPa 0,0 l/m 0 min 0 min 0 W/m 6,4 km/h (2 Bft) 100,00 %
10.04.2023 01:08 8,6 C 7,8 C 4,4 C 74 % 1023,0 hPa 0,0 l/m 0 min 0 min 0 W/m 6,4 km/h (2 Bft) 100,00 %
10.04.2023 01:10 8,5 C 7,8 C 4,4 C 75 % 1023,0 hPa 0,0 l/m 0 min 0 min 0 W/m 3,2 km/h (1 Bft) 100,00 %
10.04.2023 01:12 8,5 C 7,8 C 4,4 C 75 % 1023,0 hPa 0,0 l/m 0 min 0 min 0 W/m 6,4 km/h (2 Bft) 100,00 %
10.04.2023 01:14 8,5 C 7,8 C 4,4 C 75 % 1023,0 hPa 0,0 l/m 0 min 0 min 0 W/m 3,2 km/h (1 Bft) 100,00 %
10.04.2023 01:16 8,4 C 7,2 C 4,4 C 75 % 1023,1 hPa 0,0 l/m 0 min 0 min 0 W/m 6,4 km/h (2 Bft) 100,00 %
10.04.2023 01:18 8,4 C 7,2 C 4,4 C 75 % 1023,0 hPa 0,0 l/m 0 min 0 min 0 W/m 6,4 km/h (2 Bft) 100,00 %
10.04.2023 01:20 8,4 C 7,2 C 4,4 C 75 % 1023,0 hPa 0,0 l/m 0 min 0 min 0 W/m 3,2 km/h (1 Bft) 98,25 %
10.04.2023 01:22 8,4 C 7,2 C 4,4 C 75 % 1023,0 hPa 0,0 l/m 0 min 0 min 0 W/m 6,4 km/h (2 Bft) 97,87 %
10.04.2023 01:24 8,4 C 7,2 C 4,4 C 75 % 1023,0 hPa 0,0 l/m 0 min 0 min 0 W/m 6,4 km/h (2 Bft) 48,72 %
10.04.2023 01:26 8,4 C 7,2 C 4,4 C 75 % 1023,0 hPa 0,0 l/m 0 min 0 min 0 W/m 3,2 km/h (1 Bft) 97,83 %
10.04.2023 01:28 8,3 C 7,2 C 4,4 C 75 % 1022,9 hPa 0,0 l/m 0 min 0 min 0 W/m 3,2 km/h (1 Bft) 95,74 %
10.04.2023 01:30 8,3 C 7,2 C 4,4 C 75 % 1023,0 hPa 0,0 l/m 0 min 0 min 0 W/m 6,4 km/h (2 Bft) 95,65 %
10.04.2023 01:32 8,3 C 7,2 C 4,4 C 75 % 1022,9 hPa 0,0 l/m 0 min 0 min 0 W/m 6,4 km/h (2 Bft) 95,74 %
10.04.2023 01:34 8,3 C 7,2 C 4,4 C 75 % 1022,9 hPa 0,0 l/m 0 min 0 min 0 W/m 3,2 km/h (1 Bft) 93,62 %
10.04.2023 01:36 8,3 C 7,2 C 4,4 C 75 % 1022,9 hPa 0,0 l/m 0 min 0 min 0 W/m 12,9 km/h (3 Bft) 95,74 %
10.04.2023 01:38 8,3 C 7,2 C 4,4 C 75 % 1022,9 hPa 0,0 l/m 0 min 0 min 0 W/m 6,4 km/h (2 Bft) 95,74 %
10.04.2023 01:40 8,3 C 7,2 C 4,4 C 75 % 1022,9 hPa 0,0 l/m 0 min 0 min 0 W/m 6,4 km/h (2 Bft) 95,74 %
10.04.2023 01:42 8,3 C 7,2 C 4,4 C 75 % 1022,9 hPa 0,0 l/m 0 min 0 min 0 W/m 6,4 km/h (2 Bft) 95,65 %
10.04.2023 01:44 8,3 C 7,2 C 4,4 C 75 % 1022,9 hPa 0,0 l/m 0 min 0 min 0 W/m 6,4 km/h (2 Bft) 95,74 %
10.04.2023 01:46 8,2 C 7,2 C 4,4 C 75 % 1022,8 hPa 0,0 l/m 0 min 0 min 0 W/m 6,4 km/h (2 Bft) 93,62 %
10.04.2023 01:48 8,2 C 7,2 C 4,4 C 75 % 1022,8 hPa 0,0 l/m 0 min 0 min 0 W/m 6,4 km/h (2 Bft) 95,74 %
10.04.2023 01:50 8,2 C 7,2 C 3,9 C 75 % 1022,8 hPa 0,0 l/m 0 min 0 min 0 W/m 6,4 km/h (2 Bft) 95,74 %
10.04.2023 01:52 8,2 C 7,2 C 4,4 C 75 % 1022,8 hPa 0,0 l/m 0 min 0 min 0 W/m 6,4 km/h (2 Bft) 92,50 %
10.04.2023 01:54 8,2 C 7,2 C 3,9 C 76 % 1022,8 hPa 0,0 l/m 0 min 0 min 0 W/m 3,2 km/h (1 Bft) 91,67 %
10.04.2023 01:56 8,2 C 7,2 C 3,9 C 76 % 1022,7 hPa 0,0 l/m 0 min 0 min 0 W/m 6,4 km/h (2 Bft) 93,62 %
10.04.2023 01:58 8,2 C 7,2 C 3,9 C 76 % 1022,7 hPa 0,0 l/m 0 min 0 min 0 W/m 6,4 km/h (2 Bft) 93,48 %
10.04.2023 02:00 8,2 C 7,2 C 3,9 C 76 % 1022,7 hPa 0,0 l/m 0 min 0 min 0 W/m 12,9 km/h (3 Bft) 93,62 %
10.04.2023 02:02 8,2 C 7,2 C 3,9 C 75 % 1022,7 hPa 0,0 l/m 0 min 0 min 0 W/m 3,2 km/h (1 Bft) 93,62 %
10.04.2023 02:04 8,2 C 7,2 C 3,9 C 76 % 1022,6 hPa 0,0 l/m 0 min 0 min 0 W/m 6,4 km/h (2 Bft) 91,67 %
10.04.2023 02:06 8,2 C 7,2 C 3,9 C 76 % 1022,6 hPa 0,0 l/m 0 min 0 min 0 W/m 6,4 km/h (2 Bft) 93,62 %
10.04.2023 02:08 8,1 C 7,2 C 3,9 C 76 % 1022,5 hPa 0,0 l/m 0 min 0 min 0 W/m 6,4 km/h (2 Bft) 95,74 %
10.04.2023 02:10 8,1 C 7,2 C 3,9 C 76 % 1022,5 hPa 0,0 l/m 0 min 0 min 0 W/m 6,4 km/h (2 Bft) 93,62 %
10.04.2023 02:12 8,1 C 7,2 C 3,9 C 76 % 1022,5 hPa 0,0 l/m 0 min 0 min 0 W/m 6,4 km/h (2 Bft) 97,30 %
10.04.2023 02:14 8,1 C 7,2 C 3,9 C 76 % 1022,5 hPa 0,0 l/m 0 min 0 min 0 W/m 6,4 km/h (2 Bft) 95,65 %
10.04.2023 02:16 8,1 C 7,2 C 3,9 C 76 % 1022,5 hPa 0,0 l/m 0 min 0 min 0 W/m 6,4 km/h (2 Bft) 94,44 %
10.04.2023 02:18 8,1 C 7,2 C 3,9 C 76 % 1022,5 hPa 0,0 l/m 0 min 0 min 0 W/m 6,4 km/h (2 Bft) 97,87 %
10.04.2023 02:20 8,1 C 7,2 C 3,9 C 76 % 1022,5 hPa 0,0 l/m 0 min 0 min 0 W/m 6,4 km/h (2 Bft) 97,87 %
10.04.2023 02:22 8,1 C 7,2 C 3,9 C 76 % 1022,4 hPa 0,0 l/m 0 min 0 min 0 W/m 3,2 km/h (1 Bft) 95,74 %
10.04.2023 02:24 8,1 C 7,2 C 3,9 C 76 % 1022,4 hPa 0,0 l/m 0 min 0 min 0 W/m 6,4 km/h (2 Bft) 100,00 %
10.04.2023 02:26 8,1 C 7,2 C 3,9 C 76 % 1022,4 hPa 0,0 l/m 0 min 0 min 0 W/m 12,9 km/h (3 Bft) 100,00 %
10.04.2023 02:28 8,1 C 7,2 C 3,9 C 76 % 1022,4 hPa 0,0 l/m 0 min 0 min 0 W/m 3,2 km/h (1 Bft) 97,87 %
10.04.2023 02:30 8,1 C 7,2 C 3,9 C 76 % 1022,2 hPa 0,0 l/m 0 min 0 min 0 W/m 6,4 km/h (2 Bft) 100,00 %
10.04.2023 02:32 8,1 C 7,2 C 3,9 C 76 % 1022,2 hPa 0,0 l/m 0 min 0 min 0 W/m 6,4 km/h (2 Bft) 100,00 %
10.04.2023 02:34 8,1 C 7,2 C 3,9 C 76 % 1022,2 hPa 0,0 l/m 0 min 0 min 0 W/m 12,9 km/h (3 Bft) 100,00 %
10.04.2023 02:36 8,1 C 7,2 C 3,9 C 76 % 1022,2 hPa 0,0 l/m 0 min 0 min 0 W/m 6,4 km/h (2 Bft) 97,87 %
10.04.2023 02:38 8,1 C 7,2 C 3,9 C 76 % 1022,2 hPa 0,0 l/m 0 min 0 min 0 W/m 6,4 km/h (2 Bft) 97,83 %
10.04.2023 02:40 8,1 C 7,2 C 3,9 C 77 % 1022,2 hPa 0,0 l/m 0 min 0 min 0 W/m 6,4 km/h (2 Bft) 100,00 %
10.04.2023 02:42 8,1 C 7,2 C 3,9 C 76 % 1022,3 hPa 0,0 l/m 0 min 0 min 0 W/m 6,4 km/h (2 Bft) 100,00 %
10.04.2023 02:44 8,1 C 7,2 C 3,9 C 76 % 1022,3 hPa 0,0 l/m 0 min 0 min 0 W/m 3,2 km/h (1 Bft) 100,00 %
10.04.2023 02:46 8,1 C 7,2 C 3,9 C 76 % 1022,2 hPa 0,0 l/m 0 min 0 min 0 W/m 12,9 km/h (3 Bft) 97,87 %
10.04.2023 02:48 8,1 C 7,2 C 3,9 C 76 % 1022,2 hPa 0,0 l/m 0 min 0 min 0 W/m 6,4 km/h (2 Bft) 100,00 %
10.04.2023 02:50 8,1 C 7,2 C 3,9 C 76 % 1022,2 hPa 0,0 l/m 0 min 0 min 0 W/m 6,4 km/h (2 Bft) 100,00 %
10.04.2023 02:52 8,1 C 7,2 C 3,9 C 76 % 1022,1 hPa 0,0 l/m 0 min 0 min 0 W/m 6,4 km/h (2 Bft) 97,83 %
10.04.2023 02:54 8,0 C 7,2 C 3,9 C 76 % 1022,2 hPa 0,0 l/m 0 min 0 min 0 W/m 12,9 km/h (3 Bft) 95,74 %
10.04.2023 02:56 8,0 C 7,2 C 3,9 C 76 % 1022,1 hPa 0,0 l/m 0 min 0 min 0 W/m 6,4 km/h (2 Bft) 100,00 %
10.04.2023 02:58 8,0 C 7,2 C 3,9 C 77 % 1022,1 hPa 0,0 l/m 0 min 0 min 0 W/m 6,4 km/h (2 Bft) 100,00 %
10.04.2023 03:00 8,0 C 7,2 C 3,9 C 77 % 1022,1 hPa 0,0 l/m 0 min 0 min 0 W/m 16,1 km/h (3 Bft) 97,87 %
10.04.2023 03:02 8,0 C 7,2 C 3,9 C 77 % 1022,1 hPa 0,0 l/m 0 min 0 min 0 W/m 12,9 km/h (3 Bft) 94,74 %
10.04.2023 03:04 8,0 C 7,2 C 3,9 C 77 % 1022,0 hPa 0,0 l/m 0 min 0 min 0 W/m 6,4 km/h (2 Bft) 100,00 %
10.04.2023 03:06 8,0 C 7,2 C 3,9 C 77 % 1022,0 hPa 0,0 l/m 0 min 0 min 0 W/m 6,4 km/h (2 Bft) 97,87 %
10.04.2023 03:08 7,9 C 7,2 C 3,9 C 77 % 1022,0 hPa 0,0 l/m 0 min 0 min 0 W/m 6,4 km/h (2 Bft) 100,00 %
10.04.2023 03:10 7,9 C 7,2 C 3,9 C 77 % 1021,9 hPa 0,0 l/m 0 min 0 min 0 W/m 12,9 km/h (3 Bft) 100,00 %
10.04.2023 03:12 7,9 C 7,2 C 3,9 C 77 % 1021,9 hPa 0,0 l/m 0 min 0 min 0 W/m 6,4 km/h (2 Bft) 100,00 %
10.04.2023 03:14 7,9 C 7,2 C 3,9 C 77 % 1021,9 hPa 0,0 l/m 0 min 0 min 0 W/m 6,4 km/h (2 Bft) 100,00 %
10.04.2023 03:16 7,9 C 7,2 C 3,9 C 77 % 1021,9 hPa 0,0 l/m 0 min 0 min 0 W/m 16,1 km/h (3 Bft) 100,00 %
10.04.2023 03:18 7,9 C 7,2 C 3,9 C 77 % 1021,8 hPa 0,0 l/m 0 min 0 min 0 W/m 6,4 km/h (2 Bft) 100,00 %
10.04.2023 03:20 7,9 C 7,2 C 3,9 C 77 % 1021,8 hPa 0,0 l/m 0 min 0 min 0 W/m 6,4 km/h (2 Bft) 100,00 %
10.04.2023 03:22 7,8 C 7,2 C 3,9 C 77 % 1021,8 hPa 0,0 l/m 0 min 0 min 0 W/m 6,4 km/h (2 Bft) 100,00 %
10.04.2023 03:24 7,8 C 7,2 C 3,9 C 77 % 1021,8 hPa 0,0 l/m 0 min 0 min 0 W/m 6,4 km/h (2 Bft) 100,00 %
10.04.2023 03:26 7,8 C 7,2 C 3,9 C 77 % 1021,8 hPa 0,0 l/m 0 min 0 min 0 W/m 6,4 km/h (2 Bft) 97,87 %
10.04.2023 03:28 7,8 C 7,2 C 3,9 C 77 % 1021,7 hPa 0,0 l/m 0 min 0 min 0 W/m 6,4 km/h (2 Bft) 97,92 %
10.04.2023 03:30 7,8 C 7,2 C 3,9 C 77 % 1021,7 hPa 0,0 l/m 0 min 0 min 0 W/m 12,9 km/h (3 Bft) 97,87 %
10.04.2023 03:32 7,8 C 7,2 C 3,9 C 78 % 1021,7 hPa 0,0 l/m 0 min 0 min 0 W/m 6,4 km/h (2 Bft) 100,00 %
10.04.2023 03:34 7,8 C 7,2 C 3,3 C 78 % 1021,7 hPa 0,0 l/m 0 min 0 min 0 W/m 6,4 km/h (2 Bft) 97,92 %
10.04.2023 03:36 7,8 C 6,7 C 3,3 C 78 % 1021,6 hPa 0,0 l/m 0 min 0 min 0 W/m 6,4 km/h (2 Bft) 97,87 %
10.04.2023 03:38 7,8 C 6,7 C 3,3 C 78 % 1021,6 hPa 0,0 l/m 0 min 0 min 0 W/m 6,4 km/h (2 Bft) 95,74 %
10.04.2023 03:40 7,8 C 7,2 C 3,3 C 78 % 1021,6 hPa 0,0 l/m 0 min 0 min 0 W/m 9,7 km/h (2 Bft) 97,87 %
10.04.2023 03:42 7,8 C 7,2 C 3,3 C 78 % 1021,5 hPa 0,0 l/m 0 min 0 min 0 W/m 12,9 km/h (3 Bft) 93,62 %
10.04.2023 03:44 7,8 C 7,2 C 3,9 C 78 % 1021,5 hPa 0,0 l/m 0 min 0 min 0 W/m 12,9 km/h (3 Bft) 93,62 %
10.04.2023 03:46 7,7 C 7,2 C 3,9 C 78 % 1021,5 hPa 0,0 l/m 0 min 0 min 0 W/m 6,4 km/h (2 Bft) 93,48 %
10.04.2023 03:48 7,8 C 7,2 C 3,9 C 78 % 1021,5 hPa 0,0 l/m 0 min 0 min 0 W/m 6,4 km/h (2 Bft) 95,74 %
10.04.2023 03:50 7,7 C 7,2 C 3,9 C 78 % 1021,5 hPa 0,0 l/m 0 min 0 min 0 W/m 6,4 km/h (2 Bft) 93,62 %
10.04.2023 03:52 7,7 C 7,2 C 3,9 C 78 % 1021,5 hPa 0,0 l/m 0 min 0 min 0 W/m 9,7 km/h (2 Bft) 95,74 %
10.04.2023 03:54 7,8 C 7,2 C 3,9 C 78 % 1021,5 hPa 0,0 l/m 0 min 0 min 0 W/m 6,4 km/h (2 Bft) 93,75 %
10.04.2023 03:56 7,7 C 7,2 C 3,9 C 78 % 1021,5 hPa 0,0 l/m 0 min 0 min 0 W/m 6,4 km/h (2 Bft) 93,62 %
10.04.2023 03:58 7,7 C 7,2 C 3,3 C 78 % 1021,5 hPa 0,0 l/m 0 min 0 min 0 W/m 6,4 km/h (2 Bft) 93,48 %
10.04.2023 04:00 7,7 C 6,7 C 3,3 C 78 % 1021,6 hPa 0,0 l/m 0 min 0 min 0 W/m 6,4 km/h (2 Bft) 95,74 %
10.04.2023 04:02 7,7 C 6,7 C 3,3 C 77 % 1021,5 hPa 0,0 l/m 0 min 0 min 0 W/m 6,4 km/h (2 Bft) 100,00 %
10.04.2023 04:04 7,7 C 6,7 C 3,3 C 78 % 1021,5 hPa 0,0 l/m 0 min 0 min 0 W/m 6,4 km/h (2 Bft) 97,37 %
10.04.2023 04:09 7,7 C 6,7 C 3,3 C 77 % 1021,4 hPa 0,0 l/m 0 min 0 min 0 W/m 6,4 km/h (2 Bft) 28,57 %
10.04.2023 04:10 7,7 C 6,7 C 3,3 C 77 % 1021,4 hPa 0,0 l/m 0 min 0 min 0 W/m 6,4 km/h (2 Bft) 100,00 %
10.04.2023 04:12 7,7 C 6,7 C 3,3 C 77 % 1021,4 hPa 0,0 l/m 0 min 0 min 0 W/m 6,4 km/h (2 Bft) 95,74 %
10.04.2023 04:14 7,7 C 6,7 C 3,3 C 77 % 1021,4 hPa 0,0 l/m 0 min 0 min 0 W/m 6,4 km/h (2 Bft) 97,83 %
10.04.2023 04:16 7,6 C 6,7 C 3,3 C 77 % 1021,4 hPa 0,0 l/m 0 min 0 min 0 W/m 6,4 km/h (2 Bft) 97,92 %
10.04.2023 04:18 7,6 C 6,7 C 3,3 C 78 % 1021,4 hPa 0,0 l/m 0 min 0 min 0 W/m 12,9 km/h (3 Bft) 97,87 %
10.04.2023 04:20 7,6 C 6,7 C 3,3 C 78 % 1021,5 hPa 0,0 l/m 0 min 0 min 0 W/m 6,4 km/h (2 Bft) 93,62 %
10.04.2023 04:22 7,6 C 6,7 C 3,3 C 78 % 1021,5 hPa 0,0 l/m 0 min 0 min 0 W/m 6,4 km/h (2 Bft) 100,00 %
10.04.2023 04:24 7,6 C 6,7 C 3,3 C 78 % 1021,6 hPa 0,0 l/m 0 min 0 min 0 W/m 6,4 km/h (2 Bft) 95,92 %
10.04.2023 04:26 7,6 C 6,7 C 3,3 C 78 % 1021,5 hPa 0,0 l/m 0 min 0 min 0 W/m 6,4 km/h (2 Bft) 100,00 %
10.04.2023 04:28 7,6 C 6,7 C 3,3 C 78 % 1021,5 hPa 0,0 l/m 0 min 0 min 0 W/m 6,4 km/h (2 Bft) 97,87 %
10.04.2023 04:30 7,6 C 6,7 C 3,3 C 78 % 1021,4 hPa 0,0 l/m 0 min 0 min 0 W/m 6,4 km/h (2 Bft) 97,87 %
10.04.2023 04:32 7,6 C 6,7 C 3,3 C 78 % 1021,4 hPa 0,0 l/m 0 min 0 min 0 W/m 3,2 km/h (1 Bft) 97,87 %
10.04.2023 04:34 7,5 C 6,7 C 3,3 C 78 % 1021,4 hPa 0,0 l/m 0 min 0 min 0 W/m 16,1 km/h (3 Bft) 97,67 %
10.04.2023 04:36 7,5 C 6,7 C 3,3 C 78 % 1021,4 hPa 0,0 l/m 0 min 0 min 0 W/m 6,4 km/h (2 Bft) 100,00 %
10.04.2023 04:38 7,5 C 6,7 C 3,3 C 78 % 1021,4 hPa 0,0 l/m 0 min 0 min 0 W/m 6,4 km/h (2 Bft) 100,00 %
10.04.2023 04:40 7,4 C 6,7 C 3,3 C 78 % 1021,3 hPa 0,0 l/m 0 min 0 min 0 W/m 3,2 km/h (1 Bft) 100,00 %
10.04.2023 04:42 7,4 C 6,7 C 3,3 C 78 % 1021,3 hPa 0,0 l/m 0 min 0 min 0 W/m 12,9 km/h (3 Bft) 100,00 %
10.04.2023 04:44 7,4 C 6,7 C 3,3 C 78 % 1021,4 hPa 0,0 l/m 0 min 0 min 0 W/m 6,4 km/h (2 Bft) 97,92 %
10.04.2023 04:46 7,4 C 6,7 C 3,3 C 79 % 1021,3 hPa 0,0 l/m 0 min 0 min 0 W/m 12,9 km/h (3 Bft) 97,87 %
10.04.2023 04:48 7,4 C 6,7 C 3,3 C 79 % 1021,3 hPa 0,0 l/m 0 min 0 min 0 W/m 12,9 km/h (3 Bft) 93,62 %
10.04.2023 04:50 7,4 C 6,7 C 3,3 C 79 % 1021,3 hPa 0,0 l/m 0 min 0 min 0 W/m 9,7 km/h (2 Bft) 97,87 %
10.04.2023 04:52 7,3 C 6,7 C 3,3 C 79 % 1021,3 hPa 0,0 l/m 0 min 0 min 0 W/m 6,4 km/h (2 Bft) 95,74 %
10.04.2023 04:54 7,3 C 6,1 C 3,3 C 79 % 1021,3 hPa 0,0 l/m 0 min 0 min 0 W/m 6,4 km/h (2 Bft) 97,83 %
10.04.2023 04:56 7,3 C 6,1 C 2,8 C 79 % 1021,2 hPa 0,0 l/m 0 min 0 min 0 W/m 6,4 km/h (2 Bft) 97,87 %
10.04.2023 04:58 7,3 C 6,1 C 2,8 C 79 % 1021,3 hPa 0,0 l/m 0 min 0 min 0 W/m 12,9 km/h (3 Bft) 96,00 %
10.04.2023 05:00 7,3 C 6,1 C 2,8 C 79 % 1021,3 hPa 0,0 l/m 0 min 0 min 0 W/m 12,9 km/h (3 Bft) 97,87 %
10.04.2023 05:02 7,2 C 6,1 C 2,8 C 79 % 1021,3 hPa 0,0 l/m 0 min 0 min 0 W/m 16,1 km/h (3 Bft) 97,87 %
10.04.2023 05:04 7,2 C 6,1 C 2,8 C 79 % 1021,2 hPa 0,0 l/m 0 min 0 min 0 W/m 12,9 km/h (3 Bft) 95,74 %
10.04.2023 05:06 7,2 C 6,1 C 2,8 C 79 % 1021,2 hPa 0,0 l/m 0 min 0 min 0 W/m 6,4 km/h (2 Bft) 97,96 %
10.04.2023 05:08 7,2 C 6,1 C 2,8 C 79 % 1021,2 hPa 0,0 l/m 0 min 0 min 0 W/m 12,9 km/h (3 Bft) 97,87 %
10.04.2023 05:10 7,2 C 6,1 C 2,8 C 79 % 1021,2 hPa 0,0 l/m 0 min 0 min 0 W/m 9,7 km/h (2 Bft) 97,22 %
10.04.2023 05:12 7,2 C 6,1 C 2,8 C 79 % 1021,2 hPa 0,0 l/m 0 min 0 min 0 W/m 9,7 km/h (2 Bft) 96,36 %
10.04.2023 05:14 7,1 C 6,1 C 2,8 C 79 % 1021,1 hPa 0,0 l/m 0 min 0 min 0 W/m 6,4 km/h (2 Bft) 93,62 %
10.04.2023 05:16 7,1 C 6,1 C 2,8 C 79 % 1021,1 hPa 0,0 l/m 0 min 0 min 0 W/m 12,9 km/h (3 Bft) 95,92 %
10.04.2023 05:18 7,1 C 6,1 C 2,8 C 79 % 1021,0 hPa 0,0 l/m 0 min 0 min 0 W/m 6,4 km/h (2 Bft) 97,83 %
10.04.2023 05:20 7,1 C 6,1 C 2,8 C 80 % 1021,1 hPa 0,0 l/m 0 min 0 min 0 W/m 12,9 km/h (3 Bft) 97,87 %
10.04.2023 05:22 7,1 C 6,1 C 2,8 C 80 % 1021,0 hPa 0,0 l/m 0 min 0 min 0 W/m 6,4 km/h (2 Bft) 78,72 %
10.04.2023 05:24 7,0 C 6,1 C 2,8 C 80 % 1020,9 hPa 0,0 l/m 0 min 0 min 0 W/m 6,4 km/h (2 Bft) 68,29 %
10.04.2023 05:26 7,0 C 6,1 C 2,8 C 80 % 1020,9 hPa 0,0 l/m 0 min 0 min 0 W/m 12,9 km/h (3 Bft) 95,74 %
10.04.2023 05:28 6,9 C 6,1 C 2,8 C 80 % 1020,9 hPa 0,0 l/m 0 min 0 min 0 W/m 6,4 km/h (2 Bft) 95,74 %
10.04.2023 05:30 6,9 C 5,6 C 2,8 C 80 % 1020,8 hPa 0,0 l/m 0 min 0 min 0 W/m 6,4 km/h (2 Bft) 95,74 %
10.04.2023 05:32 6,9 C 5,6 C 2,8 C 80 % 1020,8 hPa 0,0 l/m 0 min 0 min 0 W/m 12,9 km/h (3 Bft) 93,48 %
10.04.2023 05:34 6,8 C 5,6 C 2,8 C 80 % 1020,8 hPa 0,0 l/m 0 min 0 min 0 W/m 6,4 km/h (2 Bft) 95,74 %
10.04.2023 05:36 6,8 C 5,6 C 2,8 C 80 % 1020,8 hPa 0,0 l/m 0 min 0 min 0 W/m 6,4 km/h (2 Bft) 95,74 %
10.04.2023 05:38 6,8 C 5,6 C 2,8 C 81 % 1020,8 hPa 0,0 l/m 0 min 0 min 0 W/m 6,4 km/h (2 Bft) 97,87 %
10.04.2023 05:40 6,8 C 5,6 C 2,8 C 81 % 1020,8 hPa 0,0 l/m 0 min 0 min 0 W/m 6,4 km/h (2 Bft) 97,87 %
10.04.2023 05:42 6,7 C 5,6 C 2,8 C 81 % 1020,8 hPa 0,0 l/m 0 min 0 min 0 W/m 12,9 km/h (3 Bft) 95,74 %
10.04.2023 05:44 6,7 C 5,6 C 2,8 C 81 % 1020,8 hPa 0,0 l/m 0 min 0 min 0 W/m 6,4 km/h (2 Bft) 97,83 %
10.04.2023 05:46 6,7 C 5,6 C 2,2 C 81 % 1020,7 hPa 0,0 l/m 0 min 0 min 0 W/m 12,9 km/h (3 Bft) 95,74 %
10.04.2023 05:48 6,7 C 5,6 C 2,8 C 81 % 1020,7 hPa 0,0 l/m 0 min 0 min 0 W/m 6,4 km/h (2 Bft) 97,87 %
10.04.2023 05:50 6,6 C 5,6 C 2,2 C 81 % 1020,7 hPa 0,0 l/m 0 min 0 min 0 W/m 12,9 km/h (3 Bft) 97,87 %
10.04.2023 05:52 6,6 C 5,6 C 2,2 C 81 % 1020,7 hPa 0,0 l/m 0 min 0 min 0 W/m 12,9 km/h (3 Bft) 100,00 %
10.04.2023 05:54 6,6 C 5,6 C 2,2 C 81 % 1020,7 hPa 0,0 l/m 0 min 0 min 0 W/m 12,9 km/h (3 Bft) 100,00 %
10.04.2023 05:56 6,6 C 5,6 C 2,2 C 81 % 1020,7 hPa 0,0 l/m 0 min 0 min 0 W/m 12,9 km/h (3 Bft) 97,87 %
10.04.2023 05:58 6,6 C 5,6 C 2,2 C 81 % 1020,7 hPa 0,0 l/m 0 min 0 min 0 W/m 6,4 km/h (2 Bft) 97,83 %
10.04.2023 06:00 6,6 C 5,6 C 2,2 C 81 % 1020,7 hPa 0,0 l/m 0 min 0 min 0 W/m 6,4 km/h (2 Bft) 97,87 %
10.04.2023 06:02 6,5 C 5,6 C 2,2 C 81 % 1020,7 hPa 0,0 l/m 0 min 0 min 0 W/m 12,9 km/h (3 Bft) 95,74 %
10.04.2023 06:04 6,5 C 5,6 C 2,2 C 81 % 1020,8 hPa 0,0 l/m 0 min 0 min 0 W/m 9,7 km/h (2 Bft) 93,62 %
10.04.2023 06:07 6,5 C 5,6 C 2,2 C 81 % 1020,7 hPa 0,0 l/m 0 min 0 min 0 W/m 16,1 km/h (3 Bft) 97,22 %
10.04.2023 06:08 6,5 C 5,6 C 2,2 C 81 % 1020,7 hPa 0,0 l/m 0 min 0 min 0 W/m 16,1 km/h (3 Bft) 95,83 %
10.04.2023 06:12 6,5 C 5,6 C 2,2 C 81 % 1020,6 hPa 0,0 l/m 0 min 0 min 0 W/m 12,9 km/h (3 Bft) 96,61 %
10.04.2023 06:14 6,5 C 5,6 C 2,2 C 81 % 1020,6 hPa 0,0 l/m 0 min 0 min 0 W/m 16,1 km/h (3 Bft) 95,65 %
10.04.2023 06:16 6,5 C 5,6 C 2,2 C 82 % 1020,7 hPa 0,0 l/m 0 min 0 min 0 W/m 12,9 km/h (3 Bft) 97,87 %
10.04.2023 06:18 6,5 C 5,6 C 2,2 C 82 % 1020,7 hPa 0,0 l/m 0 min 0 min 0 W/m 6,4 km/h (2 Bft) 93,62 %
10.04.2023 06:20 6,5 C 5,6 C 2,2 C 82 % 1020,7 hPa 0,0 l/m 0 min 0 min 0 W/m 9,7 km/h (2 Bft) 97,87 %
10.04.2023 06:22 6,5 C 5,6 C 2,2 C 82 % 1020,6 hPa 0,0 l/m 0 min 0 min 0 W/m 9,7 km/h (2 Bft) 97,87 %
10.04.2023 06:24 6,4 C 5,6 C 2,2 C 82 % 1020,6 hPa 0,0 l/m 0 min 0 min 0 W/m 6,4 km/h (2 Bft) 97,87 %
10.04.2023 06:26 6,4 C 5,6 C 2,2 C 82 % 1020,6 hPa 0,0 l/m 0 min 0 min 0 W/m 12,9 km/h (3 Bft) 93,62 %
10.04.2023 06:28 6,4 C 5,6 C 2,2 C 82 % 1020,5 hPa 0,0 l/m 0 min 0 min 0 W/m 6,4 km/h (2 Bft) 97,83 %
10.04.2023 06:30 6,4 C 5,6 C 2,2 C 82 % 1020,5 hPa 0,0 l/m 0 min 0 min 0 W/m 6,4 km/h (2 Bft) 97,87 %
10.04.2023 06:32 6,4 C 5,6 C 2,2 C 82 % 1020,5 hPa 0,0 l/m 0 min 0 min 0 W/m 6,4 km/h (2 Bft) 97,87 %
10.04.2023 06:34 6,4 C 5,6 C 2,2 C 82 % 1020,5 hPa 0,0 l/m 0 min 0 min 0 W/m 6,4 km/h (2 Bft) 97,87 %
10.04.2023 06:36 6,4 C 5,6 C 2,2 C 82 % 1020,5 hPa 0,0 l/m 0 min 0 min 0 W/m 12,9 km/h (3 Bft) 100,00 %
10.04.2023 06:38 6,4 C 5,6 C 2,2 C 81 % 1020,5 hPa 0,0 l/m 0 min 0 min 0 W/m 6,4 km/h (2 Bft) 100,00 %
10.04.2023 06:40 6,4 C 5,6 C 2,2 C 81 % 1020,5 hPa 0,0 l/m 0 min 0 min 0 W/m 12,9 km/h (3 Bft) 100,00 %
10.04.2023 06:42 6,4 C 5,6 C 2,2 C 81 % 1020,5 hPa 0,0 l/m 0 min 0 min 0 W/m 9,7 km/h (2 Bft) 100,00 %
10.04.2023 06:44 6,4 C 5,6 C 2,2 C 81 % 1020,5 hPa 0,0 l/m 0 min 0 min 0 W/m 12,9 km/h (3 Bft) 100,00 %
10.04.2023 06:46 6,4 C 5,6 C 2,2 C 81 % 1020,4 hPa 0,0 l/m 0 min 0 min 0 W/m 16,1 km/h (3 Bft) 100,00 %
10.04.2023 06:48 6,4 C 5,6 C 2,2 C 81 % 1020,5 hPa 0,0 l/m 0 min 0 min 0 W/m 6,4 km/h (2 Bft) 100,00 %
10.04.2023 06:50 6,5 C 5,6 C 2,2 C 81 % 1020,5 hPa 0,0 l/m 0 min 0 min 0 W/m 9,7 km/h (2 Bft) 100,00 %
10.04.2023 06:52 6,5 C 5,6 C 2,2 C 81 % 1020,5 hPa 0,0 l/m 0 min 0 min 4 W/m 12,9 km/h (3 Bft) 100,00 %
10.04.2023 06:54 6,4 C 5,6 C 2,2 C 81 % 1020,6 hPa 0,0 l/m 0 min 0 min 5 W/m 12,9 km/h (3 Bft) 97,87 %
10.04.2023 06:56 6,5 C 5,6 C 2,2 C 81 % 1020,6 hPa 0,0 l/m 0 min 0 min 6 W/m 12,9 km/h (3 Bft) 100,00 %
10.04.2023 06:58 6,5 C 5,6 C 2,2 C 81 % 1020,6 hPa 0,0 l/m 0 min 0 min 7 W/m 12,9 km/h (3 Bft) 100,00 %
10.04.2023 07:00 6,5 C 5,6 C 2,2 C 81 % 1020,6 hPa 0,0 l/m 0 min 0 min 9 W/m 12,9 km/h (3 Bft) 100,00 %
10.04.2023 07:02 6,5 C 5,6 C 2,2 C 81 % 1020,5 hPa 0,0 l/m 0 min 0 min 10 W/m 12,9 km/h (3 Bft) 100,00 %
10.04.2023 07:04 6,5 C 5,6 C 2,2 C 81 % 1020,5 hPa 0,0 l/m 0 min 0 min 12 W/m 12,9 km/h (3 Bft) 97,87 %
10.04.2023 07:06 6,5 C 5,6 C 2,2 C 81 % 1020,4 hPa 0,0 l/m 0 min 0 min 14 W/m 12,9 km/h (3 Bft) 96,55 %
10.04.2023 07:08 6,5 C 5,6 C 2,2 C 81 % 1020,5 hPa 0,0 l/m 0 min 0 min 16 W/m 12,9 km/h (3 Bft) 100,00 %
10.04.2023 07:10 6,5 C 6,1 C 2,2 C 81 % 1020,5 hPa 0,0 l/m 0 min 0 min 18 W/m 12,9 km/h (3 Bft) 97,87 %
10.04.2023 07:12 6,5 C 6,1 C 2,2 C 81 % 1020,6 hPa 0,0 l/m 0 min 0 min 19 W/m 6,4 km/h (2 Bft) 95,74 %
10.04.2023 07:14 6,5 C 6,1 C 2,8 C 81 % 1020,5 hPa 0,0 l/m 0 min 0 min 20 W/m 9,7 km/h (2 Bft) 97,87 %
10.04.2023 07:16 6,5 C 6,1 C 2,8 C 81 % 1020,6 hPa 0,0 l/m 0 min 0 min 23 W/m 9,7 km/h (2 Bft) 93,62 %
10.04.2023 07:18 6,5 C 6,1 C 2,8 C 81 % 1020,5 hPa 0,0 l/m 0 min 0 min 25 W/m 6,4 km/h (2 Bft) 97,87 %
10.04.2023 07:20 6,5 C 6,1 C 2,8 C 81 % 1020,5 hPa 0,0 l/m 0 min 0 min 26 W/m 12,9 km/h (3 Bft) 97,87 %
10.04.2023 07:22 6,5 C 6,1 C 2,8 C 81 % 1020,6 hPa 0,0 l/m 0 min 0 min 29 W/m 12,9 km/h (3 Bft) 97,83 %
10.04.2023 07:24 6,5 C 6,1 C 2,8 C 81 % 1020,5 hPa 0,0 l/m 0 min 0 min 31 W/m 12,9 km/h (3 Bft) 97,87 %
10.04.2023 07:26 6,5 C 6,1 C 2,8 C 81 % 1020,5 hPa 0,0 l/m 0 min 0 min 32 W/m 16,1 km/h (3 Bft) 97,87 %
10.04.2023 07:28 6,5 C 6,1 C 2,8 C 81 % 1020,5 hPa 0,0 l/m 0 min 0 min 33 W/m 12,9 km/h (3 Bft) 97,87 %
10.04.2023 07:30 6,5 C 6,1 C 2,8 C 81 % 1020,5 hPa 0,0 l/m 0 min 0 min 35 W/m 12,9 km/h (3 Bft) 100,00 %
10.04.2023 07:32 6,6 C 6,1 C 2,8 C 81 % 1020,6 hPa 0,0 l/m 0 min 0 min 35 W/m 12,9 km/h (3 Bft) 97,87 %
10.04.2023 07:34 6,6 C 6,1 C 2,8 C 80 % 1020,5 hPa 0,0 l/m 0 min 0 min 37 W/m 19,3 km/h (3 Bft) 97,83 %
10.04.2023 07:36 6,6 C 6,1 C 2,8 C 80 % 1020,6 hPa 0,0 l/m 0 min 0 min 37 W/m 16,1 km/h (3 Bft) 97,87 %
10.04.2023 07:38 6,6 C 6,1 C 2,8 C 80 % 1020,6 hPa 0,0 l/m 0 min 0 min 38 W/m 16,1 km/h (3 Bft) 97,87 %
10.04.2023 07:40 6,6 C 6,1 C 2,8 C 80 % 1020,5 hPa 0,0 l/m 0 min 0 min 39 W/m 12,9 km/h (3 Bft) 97,87 %
10.04.2023 07:42 6,6 C 6,1 C 2,8 C 81 % 1020,6 hPa 0,0 l/m 0 min 0 min 40 W/m 12,9 km/h (3 Bft) 97,87 %
10.04.2023 07:44 6,7 C 6,1 C 2,8 C 81 % 1020,6 hPa 0,0 l/m 0 min 0 min 42 W/m 16,1 km/h (3 Bft) 97,87 %
10.04.2023 07:46 6,7 C 6,1 C 2,8 C 81 % 1020,5 hPa 0,0 l/m 0 min 0 min 42 W/m 19,3 km/h (3 Bft) 100,00 %
10.04.2023 07:48 6,7 C 6,1 C 2,8 C 81 % 1020,5 hPa 0,0 l/m 0 min 0 min 42 W/m 16,1 km/h (3 Bft) 100,00 %
10.04.2023 07:50 6,7 C 6,1 C 2,8 C 80 % 1020,4 hPa 0,0 l/m 0 min 0 min 43 W/m 19,3 km/h (3 Bft) 100,00 %
10.04.2023 07:52 6,8 C 6,1 C 2,8 C 80 % 1020,4 hPa 0,0 l/m 0 min 0 min 46 W/m 12,9 km/h (3 Bft) 97,87 %
10.04.2023 07:54 6,8 C 6,1 C 2,8 C 80 % 1020,4 hPa 0,0 l/m 0 min 0 min 47 W/m 22,5 km/h (4 Bft) 97,87 %
10.04.2023 07:56 6,8 C 6,1 C 2,8 C 80 % 1020,4 hPa 0,0 l/m 0 min 0 min 48 W/m 12,9 km/h (3 Bft) 97,87 %
10.04.2023 07:58 6,8 C 6,7 C 2,8 C 80 % 1020,3 hPa 0,0 l/m 0 min 0 min 49 W/m 16,1 km/h (3 Bft) 97,87 %
10.04.2023 08:00 6,8 C 6,7 C 2,8 C 80 % 1020,3 hPa 0,0 l/m 0 min 0 min 49 W/m 12,9 km/h (3 Bft) 95,74 %
10.04.2023 08:02 6,8 C 6,7 C 2,8 C 80 % 1020,2 hPa 0,0 l/m 0 min 0 min 50 W/m 12,9 km/h (3 Bft) 97,83 %
10.04.2023 08:04 6,8 C 6,7 C 2,8 C 80 % 1020,2 hPa 0,0 l/m 0 min 0 min 51 W/m 12,9 km/h (3 Bft) 93,62 %
10.04.2023 08:06 6,9 C 6,7 C 2,8 C 81 % 1020,2 hPa 0,0 l/m 0 min 0 min 53 W/m 16,1 km/h (3 Bft) 96,61 %
10.04.2023 08:08 6,9 C 6,7 C 2,8 C 81 % 1020,3 hPa 0,0 l/m 0 min 0 min 55 W/m 12,9 km/h (3 Bft) 97,14 %
10.04.2023 08:10 6,9 C 6,7 C 2,8 C 80 % 1020,3 hPa 0,0 l/m 0 min 0 min 57 W/m 16,1 km/h (3 Bft) 97,87 %
10.04.2023 08:12 6,9 C 6,7 C 2,8 C 80 % 1020,3 hPa 0,0 l/m 0 min 0 min 61 W/m 16,1 km/h (3 Bft) 97,87 %
10.04.2023 08:14 7,0 C 6,7 C 3,3 C 80 % 1020,3 hPa 0,0 l/m 0 min 0 min 63 W/m 12,9 km/h (3 Bft) 95,65 %
10.04.2023 08:16 7,0 C 6,7 C 3,3 C 80 % 1020,2 hPa 0,0 l/m 0 min 0 min 68 W/m 12,9 km/h (3 Bft) 97,87 %
10.04.2023 08:18 7,1 C 7,2 C 3,3 C 80 % 1020,1 hPa 0,0 l/m 0 min 0 min 72 W/m 16,1 km/h (3 Bft) 95,74 %
10.04.2023 08:20 7,1 C 7,2 C 3,3 C 80 % 1020,1 hPa 0,0 l/m 0 min 0 min 76 W/m 16,1 km/h (3 Bft) 95,74 %
10.04.2023 08:22 7,2 C 7,2 C 3,3 C 80 % 1020,2 hPa 0,0 l/m 0 min 0 min 79 W/m 16,1 km/h (3 Bft) 95,74 %
10.04.2023 08:24 7,3 C 7,2 C 3,3 C 80 % 1020,3 hPa 0,0 l/m 0 min 0 min 84 W/m 12,9 km/h (3 Bft) 89,36 %
10.04.2023 08:26 7,3 C 7,2 C 3,3 C 80 % 1020,2 hPa 0,0 l/m 0 min 0 min 89 W/m 25,7 km/h (4 Bft) 95,74 %
10.04.2023 08:28 7,4 C 7,8 C 3,9 C 79 % 1020,2 hPa 0,0 l/m 0 min 0 min 94 W/m 22,5 km/h (4 Bft) 95,65 %
10.04.2023 08:30 7,5 C 7,8 C 3,9 C 79 % 1020,2 hPa 0,0 l/m 0 min 0 min 98 W/m 16,1 km/h (3 Bft) 95,74 %
10.04.2023 08:32 7,6 C 7,8 C 3,9 C 79 % 1020,1 hPa 0,0 l/m 0 min 0 min 101 W/m 22,5 km/h (4 Bft) 95,74 %
10.04.2023 08:34 7,7 C 7,8 C 3,9 C 78 % 1020,2 hPa 0,0 l/m 0 min 0 min 105 W/m 25,7 km/h (4 Bft) 93,62 %
10.04.2023 08:36 7,8 C 8,3 C 3,9 C 78 % 1020,1 hPa 0,0 l/m 0 min 0 min 109 W/m 19,3 km/h (3 Bft) 95,74 %
10.04.2023 08:38 7,9 C 8,3 C 4,4 C 78 % 1020,1 hPa 0,0 l/m 0 min 0 min 113 W/m 25,7 km/h (4 Bft) 95,74 %
10.04.2023 08:40 8,0 C 8,3 C 4,4 C 77 % 1020,1 hPa 0,0 l/m 0 min 0 min 113 W/m 16,1 km/h (3 Bft) 97,87 %
10.04.2023 08:42 8,1 C 8,3 C 4,4 C 77 % 1020,1 hPa 0,0 l/m 0 min 0 min 115 W/m 22,5 km/h (4 Bft) 97,87 %
10.04.2023 08:44 8,2 C 8,3 C 4,4 C 77 % 1020,1 hPa 0,0 l/m 0 min 0 min 117 W/m 19,3 km/h (3 Bft) 97,87 %
10.04.2023 08:46 8,3 C 8,3 C 4,4 C 76 % 1020,2 hPa 0,0 l/m 0 min 0 min 121 W/m 25,7 km/h (4 Bft) 97,87 %
10.04.2023 08:48 8,4 C 8,9 C 4,4 C 76 % 1020,2 hPa 0,0 l/m 0 min 0 min 125 W/m 19,3 km/h (3 Bft) 95,74 %
10.04.2023 08:50 8,4 C 8,9 C 4,4 C 76 % 1020,0 hPa 0,0 l/m 0 min 0 min 129 W/m 29,0 km/h (5 Bft) 97,83 %
10.04.2023 08:52 8,6 C 8,9 C 4,4 C 76 % 1020,1 hPa 0,0 l/m 0 min 0 min 135 W/m 22,5 km/h (4 Bft) 97,87 %
10.04.2023 08:54 8,7 C 8,9 C 5,0 C 76 % 1020,0 hPa 0,0 l/m 0 min 0 min 142 W/m 19,3 km/h (3 Bft) 95,74 %
10.04.2023 08:56 8,7 C 8,9 C 5,0 C 76 % 1020,0 hPa 0,0 l/m 0 min 0 min 149 W/m 22,5 km/h (4 Bft) 95,74 %
10.04.2023 08:58 8,8 C 9,4 C 5,0 C 75 % 1020,0 hPa 0,0 l/m 2 min 0 min 168 W/m 19,3 km/h (3 Bft) 95,74 %
10.04.2023 09:00 8,9 C 9,4 C 5,0 C 75 % 1020,0 hPa 0,0 l/m 2 min 0 min 214 W/m 22,5 km/h (4 Bft) 95,74 %
10.04.2023 09:02 9,0 C 9,4 C 5,0 C 75 % 1019,9 hPa 0,0 l/m 2 min 0 min 231 W/m 22,5 km/h (4 Bft) 93,62 %
10.04.2023 09:04 9,1 C 9,4 C 5,0 C 75 % 1020,0 hPa 0,0 l/m 2 min 0 min 252 W/m 35,4 km/h (5 Bft) 97,83 %
10.04.2023 09:06 9,2 C 9,4 C 5,0 C 74 % 1019,9 hPa 0,0 l/m 2 min 0 min 236 W/m 19,3 km/h (3 Bft) 94,92 %
10.04.2023 09:08 9,3 C 9,4 C 5,0 C 74 % 1019,8 hPa 0,0 l/m 2 min 0 min 217 W/m 25,7 km/h (4 Bft) 94,29 %
10.04.2023 09:10 9,3 C 9,4 C 5,6 C 74 % 1019,8 hPa 0,0 l/m 2 min 0 min 209 W/m 29,0 km/h (5 Bft) 97,87 %
10.04.2023 09:12 9,4 C 10,0 C 5,6 C 73 % 1019,8 hPa 0,0 l/m 2 min 0 min 225 W/m 22,5 km/h (4 Bft) 97,87 %
10.04.2023 09:14 9,5 C 10,0 C 5,6 C 73 % 1019,9 hPa 0,0 l/m 2 min 0 min 236 W/m 25,7 km/h (4 Bft) 95,74 %
10.04.2023 09:16 9,6 C 10,6 C 5,6 C 73 % 1019,9 hPa 0,0 l/m 2 min 0 min 223 W/m 25,7 km/h (4 Bft) 97,87 %
10.04.2023 09:18 9,7 C 10,6 C 5,6 C 73 % 1019,8 hPa 0,0 l/m 2 min 0 min 190 W/m 19,3 km/h (3 Bft) 97,83 %
10.04.2023 09:20 9,7 C 10,6 C 5,6 C 73 % 1019,9 hPa 0,0 l/m 2 min 0 min 194 W/m 22,5 km/h (4 Bft) 97,87 %
10.04.2023 09:22 9,8 C 10,6 C 5,6 C 72 % 1019,9 hPa 0,0 l/m 2 min 0 min 199 W/m 19,3 km/h (3 Bft) 97,87 %
10.04.2023 09:24 9,8 C 10,6 C 5,6 C 72 % 1019,8 hPa 0,0 l/m 2 min 0 min 207 W/m 22,5 km/h (4 Bft) 97,87 %
10.04.2023 09:26 9,9 C 10,6 C 5,6 C 72 % 1019,9 hPa 0,0 l/m 2 min 0 min 211 W/m 22,5 km/h (4 Bft) 97,87 %
10.04.2023 09:28 9,9 C 11,1 C 5,6 C 72 % 1019,8 hPa 0,0 l/m 2 min 0 min 206 W/m 19,3 km/h (3 Bft) 95,74 %
10.04.2023 09:30 10,0 C 11,1 C 5,6 C 71 % 1019,8 hPa 0,0 l/m 2 min 0 min 244 W/m 29,0 km/h (5 Bft) 97,87 %
10.04.2023 09:32 10,1 C 11,7 C 6,1 C 71 % 1019,8 hPa 0,0 l/m 2 min 0 min 260 W/m 25,7 km/h (4 Bft) 97,83 %
10.04.2023 09:34 10,1 C 11,7 C 6,1 C 71 % 1019,7 hPa 0,0 l/m 2 min 0 min 284 W/m 29,0 km/h (5 Bft) 97,87 %
10.04.2023 09:36 10,2 C 11,7 C 6,1 C 71 % 1019,7 hPa 0,0 l/m 2 min 0 min 288 W/m 29,0 km/h (5 Bft) 97,87 %
10.04.2023 09:38 10,3 C 11,7 C 6,1 C 71 % 1019,6 hPa 0,0 l/m 2 min 0 min 291 W/m 25,7 km/h (4 Bft) 97,87 %
10.04.2023 09:40 10,3 C 11,7 C 6,1 C 71 % 1019,6 hPa 0,0 l/m 2 min 0 min 312 W/m 32,2 km/h (5 Bft) 100,00 %
10.04.2023 09:42 10,4 C 11,7 C 6,1 C 70 % 1019,5 hPa 0,0 l/m 2 min 0 min 352 W/m 22,5 km/h (4 Bft) 97,87 %
10.04.2023 09:44 10,5 C 11,7 C 6,7 C 70 % 1019,6 hPa 0,0 l/m 2 min 0 min 372 W/m 25,7 km/h (4 Bft) 100,00 %
10.04.2023 09:46 10,6 C 12,2 C 6,7 C 70 % 1019,5 hPa 0,0 l/m 2 min 0 min 387 W/m 25,7 km/h (4 Bft) 100,00 %
10.04.2023 09:48 10,7 C 12,2 C 6,7 C 69 % 1019,5 hPa 0,0 l/m 2 min 0 min 334 W/m 29,0 km/h (5 Bft) 100,00 %
10.04.2023 09:50 10,7 C 12,2 C 6,7 C 69 % 1019,5 hPa 0,0 l/m 2 min 0 min 353 W/m 22,5 km/h (4 Bft) 100,00 %
10.04.2023 09:52 10,8 C 12,2 C 6,7 C 69 % 1019,4 hPa 0,0 l/m 2 min 0 min 378 W/m 16,1 km/h (3 Bft) 100,00 %
10.04.2023 09:54 10,9 C 12,2 C 7,2 C 69 % 1019,4 hPa 0,0 l/m 2 min 0 min 382 W/m 32,2 km/h (5 Bft) 100,00 %
10.04.2023 09:56 11,0 C 12,2 C 7,2 C 69 % 1019,4 hPa 0,0 l/m 2 min 0 min 389 W/m 22,5 km/h (4 Bft) 100,00 %
10.04.2023 09:58 11,1 C 12,2 C 7,2 C 68 % 1019,3 hPa 0,0 l/m 2 min 0 min 366 W/m 32,2 km/h (5 Bft) 100,00 %
10.04.2023 10:00 11,2 C 12,2 C 7,2 C 68 % 1019,4 hPa 0,0 l/m 2 min 0 min 381 W/m 32,2 km/h (5 Bft) 100,00 %
10.04.2023 10:02 11,2 C 12,8 C 7,2 C 68 % 1019,3 hPa 0,0 l/m 2 min 0 min 388 W/m 32,2 km/h (5 Bft) 97,87 %
10.04.2023 10:04 11,3 C 12,8 C 7,2 C 68 % 1019,3 hPa 0,0 l/m 2 min 0 min 372 W/m 35,4 km/h (5 Bft) 100,00 %
10.04.2023 10:06 11,3 C 12,8 C 7,2 C 67 % 1019,2 hPa 0,0 l/m 2 min 0 min 341 W/m 25,7 km/h (4 Bft) 100,00 %
10.04.2023 10:08 11,4 C 12,8 C 7,2 C 67 % 1019,2 hPa 0,0 l/m 2 min 0 min 326 W/m 29,0 km/h (5 Bft) 97,87 %
10.04.2023 10:10 11,4 C 12,8 C 7,2 C 67 % 1019,2 hPa 0,0 l/m 2 min 0 min 311 W/m 35,4 km/h (5 Bft) 100,00 %
10.04.2023 10:12 11,5 C 12,2 C 7,2 C 67 % 1019,1 hPa 0,0 l/m 2 min 0 min 304 W/m 29,0 km/h (5 Bft) 100,00 %
10.04.2023 10:14 11,6 C 12,8 C 7,2 C 67 % 1019,1 hPa 0,0 l/m 2 min 0 min 308 W/m 35,4 km/h (5 Bft) 100,00 %
10.04.2023 10:16 11,6 C 12,8 C 7,8 C 67 % 1019,1 hPa 0,0 l/m 2 min 0 min 333 W/m 29,0 km/h (5 Bft) 100,00 %
10.04.2023 10:18 11,6 C 13,3 C 7,8 C 66 % 1019,1 hPa 0,0 l/m 2 min 0 min 342 W/m 25,7 km/h (4 Bft) 100,00 %
10.04.2023 10:20 11,7 C 12,8 C 7,8 C 66 % 1019,0 hPa 0,0 l/m 2 min 0 min 317 W/m 32,2 km/h (5 Bft) 100,00 %
10.04.2023 10:22 11,7 C 13,3 C 7,8 C 66 % 1019,0 hPa 0,0 l/m 2 min 0 min 324 W/m 29,0 km/h (5 Bft) 100,00 %
10.04.2023 10:24 11,7 C 12,8 C 7,8 C 66 % 1019,0 hPa 0,0 l/m 2 min 0 min 321 W/m 32,2 km/h (5 Bft) 100,00 %
10.04.2023 10:26 11,7 C 12,8 C 7,8 C 66 % 1019,0 hPa 0,0 l/m 2 min 0 min 292 W/m 22,5 km/h (4 Bft) 100,00 %
10.04.2023 10:28 11,8 C 12,8 C 7,8 C 66 % 1019,0 hPa 0,0 l/m 2 min 0 min 271 W/m 32,2 km/h (5 Bft) 97,83 %
10.04.2023 10:30 11,8 C 12,8 C 7,8 C 66 % 1018,9 hPa 0,0 l/m 2 min 0 min 268 W/m 25,7 km/h (4 Bft) 97,87 %
10.04.2023 10:32 11,8 C 12,8 C 7,8 C 67 % 1018,9 hPa 0,0 l/m 0 min 0 min 255 W/m 25,7 km/h (4 Bft) 95,74 %
10.04.2023 10:34 11,8 C 12,8 C 7,8 C 66 % 1018,8 hPa 0,0 l/m 0 min 0 min 227 W/m 22,5 km/h (4 Bft) 93,62 %
10.04.2023 10:36 11,8 C 12,2 C 7,8 C 67 % 1018,8 hPa 0,0 l/m 0 min 0 min 217 W/m 25,7 km/h (4 Bft) 97,87 %
10.04.2023 10:38 11,8 C 12,2 C 7,8 C 66 % 1018,8 hPa 0,0 l/m 0 min 0 min 215 W/m 29,0 km/h (5 Bft) 97,87 %
10.04.2023 10:40 11,8 C 12,2 C 7,8 C 66 % 1018,8 hPa 0,0 l/m 0 min 0 min 219 W/m 22,5 km/h (4 Bft) 97,87 %
10.04.2023 10:42 11,8 C 12,2 C 7,8 C 67 % 1018,7 hPa 0,0 l/m 0 min 0 min 223 W/m 22,5 km/h (4 Bft) 97,83 %
10.04.2023 10:44 11,8 C 12,8 C 7,8 C 67 % 1018,7 hPa 0,0 l/m 0 min 0 min 241 W/m 29,0 km/h (5 Bft) 97,87 %
10.04.2023 10:46 11,9 C 13,3 C 7,8 C 67 % 1018,6 hPa 0,0 l/m 2 min 0 min 308 W/m 35,4 km/h (5 Bft) 97,87 %
10.04.2023 10:48 11,9 C 13,9 C 8,3 C 67 % 1018,6 hPa 0,0 l/m 2 min 0 min 320 W/m 22,5 km/h (4 Bft) 97,87 %
10.04.2023 10:50 11,9 C 13,9 C 8,3 C 67 % 1018,6 hPa 0,0 l/m 0 min 0 min 257 W/m 19,3 km/h (3 Bft) 97,87 %
10.04.2023 10:52 12,1 C 13,9 C 8,9 C 67 % 1018,6 hPa 0,0 l/m 0 min 0 min 243 W/m 22,5 km/h (4 Bft) 93,62 %
10.04.2023 10:54 12,1 C 15,0 C 8,9 C 67 % 1018,6 hPa 0,0 l/m 0 min 0 min 206 W/m 22,5 km/h (4 Bft) 95,74 %
10.04.2023 10:56 12,3 C 16,1 C 9,4 C 66 % 1018,6 hPa 0,0 l/m 2 min 0 min 424 W/m 22,5 km/h (4 Bft) 97,83 %
10.04.2023 10:58 12,4 C 16,7 C 10,0 C 67 % 1018,6 hPa 0,0 l/m 2 min 0 min 543 W/m 19,3 km/h (3 Bft) 97,87 %
10.04.2023 11:00 12,6 C 16,7 C 10,0 C 66 % 1018,5 hPa 0,0 l/m 2 min 0 min 535 W/m 22,5 km/h (4 Bft) 97,87 %
10.04.2023 11:02 12,8 C 16,7 C 10,0 C 65 % 1018,6 hPa 0,0 l/m 2 min 0 min 645 W/m 29,0 km/h (5 Bft) 97,87 %
10.04.2023 11:04 12,9 C 16,7 C 10,0 C 65 % 1018,6 hPa 0,0 l/m 2 min 0 min 585 W/m 25,7 km/h (4 Bft) 97,87 %
10.04.2023 11:06 13,1 C 16,7 C 10,0 C 64 % 1018,6 hPa 0,0 l/m 2 min 0 min 523 W/m 22,5 km/h (4 Bft) 95,74 %
10.04.2023 11:08 13,1 C 16,1 C 10,0 C 64 % 1018,6 hPa 0,0 l/m 2 min 0 min 669 W/m 29,0 km/h (5 Bft) 97,83 %
10.04.2023 11:10 13,2 C 16,1 C 10,0 C 64 % 1018,6 hPa 0,0 l/m 2 min 0 min 649 W/m 22,5 km/h (4 Bft) 95,74 %
10.04.2023 11:12 13,3 C 16,1 C 10,6 C 64 % 1018,7 hPa 0,0 l/m 2 min 0 min 595 W/m 22,5 km/h (4 Bft) 100,00 %
10.04.2023 11:14 13,5 C 16,1 C 10,6 C 63 % 1018,7 hPa 0,0 l/m 2 min 0 min 530 W/m 35,4 km/h (5 Bft) 97,87 %
10.04.2023 11:16 13,6 C 15,6 C 10,0 C 61 % 1018,7 hPa 0,0 l/m 2 min 0 min 591 W/m 32,2 km/h (5 Bft) 95,74 %
10.04.2023 11:18 13,6 C 15,0 C 10,0 C 61 % 1018,7 hPa 0,0 l/m 2 min 0 min 440 W/m 35,4 km/h (5 Bft) 95,74 %
10.04.2023 11:20 13,7 C 15,0 C 10,0 C 61 % 1018,7 hPa 0,0 l/m 2 min 0 min 437 W/m 29,0 km/h (5 Bft) 97,87 %
10.04.2023 11:22 13,7 C 15,0 C 10,0 C 62 % 1018,7 hPa 0,0 l/m 2 min 0 min 409 W/m 25,7 km/h (4 Bft) 97,83 %
10.04.2023 11:24 13,7 C 15,0 C 10,0 C 62 % 1018,7 hPa 0,0 l/m 2 min 0 min 361 W/m 25,7 km/h (4 Bft) 97,87 %
10.04.2023 11:26 13,8 C 15,0 C 10,0 C 61 % 1018,7 hPa 0,0 l/m 2 min 0 min 384 W/m 22,5 km/h (4 Bft) 97,87 %
10.04.2023 11:28 13,8 C 15,6 C 10,6 C 61 % 1018,7 hPa 0,0 l/m 2 min 0 min 401 W/m 29,0 km/h (5 Bft) 97,87 %
10.04.2023 11:30 13,8 C 15,6 C 10,6 C 62 % 1018,6 hPa 0,0 l/m 2 min 0 min 452 W/m 22,5 km/h (4 Bft) 97,87 %
10.04.2023 11:32 13,9 C 16,1 C 10,6 C 62 % 1018,5 hPa 0,0 l/m 2 min 0 min 430 W/m 16,1 km/h (3 Bft) 97,87 %
10.04.2023 11:34 14,1 C 16,1 C 10,6 C 62 % 1018,4 hPa 0,0 l/m 2 min 0 min 423 W/m 35,4 km/h (5 Bft) 97,87 %
10.04.2023 11:36 14,1 C 16,1 C 11,1 C 62 % 1018,4 hPa 0,0 l/m 2 min 0 min 398 W/m 22,5 km/h (4 Bft) 97,83 %
10.04.2023 11:38 14,3 C 16,7 C 11,1 C 61 % 1018,4 hPa 0,0 l/m 2 min 0 min 393 W/m 29,0 km/h (5 Bft) 97,87 %
10.04.2023 11:40 14,3 C 16,1 C 11,1 C 61 % 1018,4 hPa 0,0 l/m 2 min 0 min 426 W/m 35,4 km/h (5 Bft) 97,87 %
10.04.2023 11:42 14,3 C 16,1 C 11,1 C 61 % 1018,4 hPa 0,0 l/m 2 min 0 min 435 W/m 29,0 km/h (5 Bft) 93,62 %
10.04.2023 11:44 14,3 C 16,1 C 11,1 C 60 % 1018,4 hPa 0,0 l/m 2 min 0 min 474 W/m 29,0 km/h (5 Bft) 97,87 %
10.04.2023 11:46 14,3 C 16,1 C 11,7 C 60 % 1018,3 hPa 0,0 l/m 2 min 0 min 512 W/m 32,2 km/h (5 Bft) 95,74 %
10.04.2023 11:48 14,3 C 16,7 C 11,7 C 60 % 1018,3 hPa 0,0 l/m 2 min 0 min 514 W/m 25,7 km/h (4 Bft) 95,65 %
10.04.2023 11:50 14,4 C 16,7 C 11,7 C 60 % 1018,2 hPa 0,0 l/m 2 min 0 min 504 W/m 25,7 km/h (4 Bft) 97,87 %
10.04.2023 11:52 14,4 C 17,2 C 12,2 C 60 % 1018,2 hPa 0,0 l/m 2 min 0 min 544 W/m 25,7 km/h (4 Bft) 97,87 %
10.04.2023 11:54 14,6 C 17,8 C 12,2 C 60 % 1018,2 hPa 0,0 l/m 2 min 0 min 631 W/m 25,7 km/h (4 Bft) 97,87 %
10.04.2023 11:56 14,7 C 18,3 C 12,8 C 60 % 1018,2 hPa 0,0 l/m 2 min 0 min 634 W/m 22,5 km/h (4 Bft) 97,87 %
10.04.2023 11:58 14,7 C 17,2 C 12,2 C 59 % 1018,1 hPa 0,0 l/m 2 min 0 min 566 W/m 41,8 km/h (6 Bft) 97,87 %
10.04.2023 12:00 14,7 C 17,8 C 12,2 C 59 % 1018,1 hPa 0,0 l/m 2 min 0 min 550 W/m 29,0 km/h (5 Bft) 100,00 %
10.04.2023 12:02 14,8 C 18,3 C 12,8 C 59 % 1018,0 hPa 0,0 l/m 2 min 0 min 666 W/m 25,7 km/h (4 Bft) 97,83 %
10.04.2023 12:04 14,9 C 18,3 C 12,8 C 59 % 1018,1 hPa 0,0 l/m 2 min 0 min 614 W/m 25,7 km/h (4 Bft) 100,00 %
10.04.2023 12:07 15,1 C 18,3 C 13,3 C 59 % 1018,0 hPa 0,0 l/m 3 min 0 min 573 W/m 29,0 km/h (5 Bft) 97,18 %
10.04.2023 12:08 15,1 C 18,3 C 13,3 C 59 % 1018,0 hPa 0,0 l/m 1 min 0 min 544 W/m 22,5 km/h (4 Bft) 95,83 %
10.04.2023 12:12 15,2 C 17,8 C 12,8 C 58 % 1017,9 hPa 0,0 l/m 4 min 0 min 514 W/m 32,2 km/h (5 Bft) 97,96 %
10.04.2023 12:14 15,2 C 16,7 C 12,2 C 58 % 1017,9 hPa 0,0 l/m 2 min 0 min 468 W/m 29,0 km/h (5 Bft) 97,87 %
10.04.2023 12:16 15,3 C 16,7 C 12,2 C 58 % 1017,9 hPa 0,0 l/m 2 min 0 min 452 W/m 29,0 km/h (5 Bft) 95,74 %
10.04.2023 12:18 15,3 C 16,7 C 12,2 C 58 % 1017,8 hPa 0,0 l/m 2 min 0 min 441 W/m 22,5 km/h (4 Bft) 97,87 %
10.04.2023 12:20 15,3 C 16,7 C 12,2 C 58 % 1017,7 hPa 0,0 l/m 2 min 0 min 424 W/m 22,5 km/h (4 Bft) 97,87 %
10.04.2023 12:22 15,3 C 16,7 C 11,7 C 58 % 1017,7 hPa 0,0 l/m 2 min 0 min 424 W/m 29,0 km/h (5 Bft) 97,83 %
10.04.2023 12:24 15,3 C 16,7 C 11,7 C 58 % 1017,8 hPa 0,0 l/m 2 min 0 min 428 W/m 22,5 km/h (4 Bft) 95,74 %
10.04.2023 12:26 15,3 C 16,7 C 12,2 C 58 % 1017,6 hPa 0,0 l/m 2 min 0 min 436 W/m 22,5 km/h (4 Bft) 97,87 %
10.04.2023 12:28 15,4 C 16,7 C 12,2 C 58 % 1017,6 hPa 0,0 l/m 2 min 0 min 442 W/m 25,7 km/h (4 Bft) 97,87 %
10.04.2023 12:30 15,4 C 16,7 C 12,2 C 58 % 1017,4 hPa 0,0 l/m 2 min 0 min 430 W/m 22,5 km/h (4 Bft) 97,87 %
10.04.2023 12:32 15,4 C 16,7 C 11,7 C 58 % 1017,4 hPa 0,0 l/m 2 min 0 min 422 W/m 35,4 km/h (5 Bft) 97,92 %
10.04.2023 12:34 15,4 C 16,7 C 11,7 C 58 % 1017,3 hPa 0,0 l/m 2 min 0 min 412 W/m 25,7 km/h (4 Bft) 97,83 %
10.04.2023 12:36 15,4 C 16,1 C 11,7 C 57 % 1017,3 hPa 0,0 l/m 2 min 0 min 407 W/m 29,0 km/h (5 Bft) 97,87 %
10.04.2023 12:38 15,4 C 16,1 C 11,7 C 58 % 1017,3 hPa 0,0 l/m 2 min 0 min 404 W/m 29,0 km/h (5 Bft) 97,87 %
10.04.2023 12:40 15,4 C 16,1 C 11,7 C 58 % 1017,2 hPa 0,0 l/m 2 min 0 min 397 W/m 25,7 km/h (4 Bft) 97,87 %
10.04.2023 12:42 15,4 C 16,1 C 11,7 C 58 % 1017,1 hPa 0,0 l/m 2 min 0 min 397 W/m 32,2 km/h (5 Bft) 97,87 %
10.04.2023 12:44 15,4 C 16,1 C 11,7 C 58 % 1017,2 hPa 0,0 l/m 2 min 0 min 395 W/m 25,7 km/h (4 Bft) 97,87 %
10.04.2023 12:46 15,4 C 16,1 C 11,7 C 58 % 1017,2 hPa 0,0 l/m 2 min 0 min 394 W/m 19,3 km/h (3 Bft) 93,62 %
10.04.2023 12:48 15,4 C 16,1 C 11,7 C 58 % 1017,1 hPa 0,0 l/m 2 min 0 min 371 W/m 25,7 km/h (4 Bft) 97,83 %
10.04.2023 12:50 15,4 C 16,1 C 11,7 C 58 % 1017,1 hPa 0,0 l/m 2 min 0 min 353 W/m 19,3 km/h (3 Bft) 97,87 %
10.04.2023 12:52 15,4 C 16,1 C 11,7 C 58 % 1016,9 hPa 0,0 l/m 2 min 0 min 352 W/m 29,0 km/h (5 Bft) 97,87 %
10.04.2023 12:54 15,4 C 16,1 C 11,1 C 58 % 1017,0 hPa 0,0 l/m 2 min 0 min 364 W/m 25,7 km/h (4 Bft) 97,87 %
10.04.2023 12:56 15,4 C 16,1 C 11,7 C 58 % 1016,9 hPa 0,0 l/m 2 min 0 min 393 W/m 32,2 km/h (5 Bft) 95,74 %
10.04.2023 12:58 15,4 C 16,7 C 11,7 C 58 % 1017,0 hPa 0,0 l/m 2 min 0 min 410 W/m 16,1 km/h (3 Bft) 97,87 %
10.04.2023 13:00 15,4 C 16,7 C 11,7 C 58 % 1016,8 hPa 0,0 l/m 2 min 0 min 404 W/m 19,3 km/h (3 Bft) 95,74 %
10.04.2023 13:02 15,6 C 16,7 C 11,7 C 58 % 1016,9 hPa 0,0 l/m 2 min 0 min 410 W/m 22,5 km/h (4 Bft) 95,65 %
10.04.2023 13:04 15,6 C 16,1 C 11,7 C 57 % 1016,9 hPa 0,0 l/m 2 min 0 min 388 W/m 35,4 km/h (5 Bft) 95,74 %
10.04.2023 13:06 15,6 C 16,1 C 11,7 C 57 % 1016,8 hPa 0,0 l/m 2 min 0 min 366 W/m 25,7 km/h (4 Bft) 96,61 %
10.04.2023 13:08 15,6 C 16,1 C 11,7 C 57 % 1016,8 hPa 0,0 l/m 2 min 0 min 365 W/m 19,3 km/h (3 Bft) 97,14 %
10.04.2023 13:10 15,6 C 16,1 C 11,7 C 57 % 1016,9 hPa 0,0 l/m 2 min 0 min 366 W/m 19,3 km/h (3 Bft) 95,74 %
10.04.2023 13:12 15,6 C 16,1 C 11,7 C 57 % 1016,8 hPa 0,0 l/m 0 min 0 min 354 W/m 32,2 km/h (5 Bft) 95,74 %
10.04.2023 13:14 15,6 C 16,1 C 11,7 C 57 % 1016,7 hPa 0,0 l/m 2 min 0 min 356 W/m 29,0 km/h (5 Bft) 93,48 %
10.04.2023 13:16 15,6 C 16,1 C 11,7 C 57 % 1016,7 hPa 0,0 l/m 2 min 0 min 371 W/m 29,0 km/h (5 Bft) 95,74 %
10.04.2023 13:18 15,7 C 16,1 C 11,7 C 57 % 1016,6 hPa 0,0 l/m 2 min 0 min 394 W/m 19,3 km/h (3 Bft) 95,74 %
10.04.2023 13:20 15,7 C 16,1 C 11,7 C 56 % 1016,6 hPa 0,0 l/m 2 min 0 min 380 W/m 25,7 km/h (4 Bft) 97,87 %
10.04.2023 13:22 15,7 C 16,1 C 11,7 C 56 % 1016,5 hPa 0,0 l/m 2 min 0 min 382 W/m 22,5 km/h (4 Bft) 93,62 %
10.04.2023 13:24 15,7 C 16,1 C 11,7 C 57 % 1016,4 hPa 0,0 l/m 2 min 0 min 378 W/m 29,0 km/h (5 Bft) 95,74 %
10.04.2023 13:26 15,7 C 16,1 C 11,7 C 56 % 1016,4 hPa 0,0 l/m 2 min 0 min 375 W/m 32,2 km/h (5 Bft) 96,36 %
10.04.2023 13:28 15,7 C 16,1 C 11,7 C 57 % 1016,4 hPa 0,0 l/m 2 min 0 min 364 W/m 22,5 km/h (4 Bft) 93,62 %
10.04.2023 13:30 15,7 C 16,1 C 11,7 C 57 % 1016,4 hPa 0,0 l/m 0 min 0 min 345 W/m 22,5 km/h (4 Bft) 95,65 %
10.04.2023 13:32 15,8 C 16,1 C 11,7 C 57 % 1016,3 hPa 0,0 l/m 0 min 0 min 349 W/m 19,3 km/h (3 Bft) 95,74 %
10.04.2023 13:34 15,8 C 16,1 C 11,7 C 57 % 1016,3 hPa 0,0 l/m 0 min 0 min 342 W/m 19,3 km/h (3 Bft) 95,74 %
10.04.2023 13:36 15,8 C 16,1 C 11,7 C 57 % 1016,3 hPa 0,0 l/m 0 min 0 min 322 W/m 25,7 km/h (4 Bft) 93,62 %
10.04.2023 13:38 15,8 C 16,1 C 11,7 C 57 % 1016,3 hPa 0,0 l/m 0 min 0 min 307 W/m 22,5 km/h (4 Bft) 95,74 %
10.04.2023 13:40 15,8 C 16,1 C 11,7 C 57 % 1016,3 hPa 0,0 l/m 0 min 0 min 306 W/m 19,3 km/h (3 Bft) 93,62 %
10.04.2023 13:42 15,8 C 16,1 C 11,7 C 57 % 1016,3 hPa 0,0 l/m 0 min 0 min 313 W/m 19,3 km/h (3 Bft) 95,74 %
10.04.2023 13:44 15,9 C 16,1 C 11,7 C 57 % 1016,3 hPa 0,0 l/m 0 min 0 min 318 W/m 12,9 km/h (3 Bft) 97,83 %
10.04.2023 13:46 15,9 C 16,7 C 11,7 C 57 % 1016,3 hPa 0,0 l/m 0 min 0 min 314 W/m 19,3 km/h (3 Bft) 97,87 %
10.04.2023 13:48 15,9 C 16,7 C 11,7 C 57 % 1016,2 hPa 0,0 l/m 0 min 0 min 326 W/m 22,5 km/h (4 Bft) 97,87 %
10.04.2023 13:50 16,0 C 16,7 C 11,7 C 57 % 1016,2 hPa 0,0 l/m 0 min 0 min 341 W/m 19,3 km/h (3 Bft) 97,87 %
10.04.2023 13:52 16,0 C 16,7 C 11,7 C 57 % 1016,0 hPa 0,0 l/m 2 min 0 min 357 W/m 22,5 km/h (4 Bft) 95,74 %
10.04.2023 13:54 16,1 C 16,7 C 11,7 C 57 % 1016,1 hPa 0,0 l/m 2 min 0 min 357 W/m 25,7 km/h (4 Bft) 97,87 %
10.04.2023 13:56 16,1 C 16,7 C 12,2 C 57 % 1016,0 hPa 0,0 l/m 0 min 0 min 332 W/m 19,3 km/h (3 Bft) 97,83 %
10.04.2023 13:58 16,1 C 16,7 C 12,2 C 57 % 1015,9 hPa 0,0 l/m 0 min 0 min 307 W/m 19,3 km/h (3 Bft) 100,00 %
10.04.2023 14:00 16,1 C 16,1 C 11,7 C 57 % 1015,9 hPa 0,0 l/m 0 min 0 min 289 W/m 29,0 km/h (5 Bft) 97,87 %
10.04.2023 14:02 16,1 C 16,1 C 11,7 C 57 % 1015,9 hPa 0,0 l/m 0 min 0 min 275 W/m 35,4 km/h (5 Bft) 100,00 %
10.04.2023 14:04 16,1 C 16,1 C 11,7 C 57 % 1015,8 hPa 0,0 l/m 0 min 0 min 265 W/m 19,3 km/h (3 Bft) 97,87 %
10.04.2023 14:06 16,1 C 16,1 C 11,7 C 57 % 1015,7 hPa 0,0 l/m 0 min 0 min 265 W/m 22,5 km/h (4 Bft) 97,87 %
10.04.2023 14:08 16,1 C 16,1 C 11,7 C 57 % 1015,8 hPa 0,0 l/m 0 min 0 min 273 W/m 29,0 km/h (5 Bft) 97,87 %
10.04.2023 14:10 16,1 C 16,1 C 11,7 C 57 % 1015,7 hPa 0,0 l/m 0 min 0 min 282 W/m 35,4 km/h (5 Bft) 97,87 %
10.04.2023 14:12 16,1 C 16,1 C 11,7 C 57 % 1015,7 hPa 0,0 l/m 0 min 0 min 299 W/m 22,5 km/h (4 Bft) 97,83 %
10.04.2023 14:14 16,1 C 16,1 C 11,7 C 57 % 1015,7 hPa 0,0 l/m 0 min 0 min 330 W/m 22,5 km/h (4 Bft) 100,00 %
10.04.2023 14:16 16,1 C 16,7 C 11,7 C 57 % 1015,7 hPa 0,0 l/m 0 min 0 min 344 W/m 19,3 km/h (3 Bft) 100,00 %
10.04.2023 14:18 16,1 C 16,7 C 11,7 C 57 % 1015,7 hPa 0,0 l/m 2 min 0 min 369 W/m 22,5 km/h (4 Bft) 97,87 %
10.04.2023 14:20 16,1 C 16,7 C 12,2 C 58 % 1015,6 hPa 0,0 l/m 2 min 0 min 412 W/m 22,5 km/h (4 Bft) 100,00 %
10.04.2023 14:22 16,2 C 17,2 C 12,2 C 57 % 1015,6 hPa 0,0 l/m 2 min 0 min 444 W/m 29,0 km/h (5 Bft) 100,00 %
10.04.2023 14:24 16,2 C 17,8 C 12,2 C 57 % 1015,6 hPa 0,0 l/m 2 min 0 min 471 W/m 22,5 km/h (4 Bft) 97,96 %
10.04.2023 14:26 16,3 C 18,3 C 12,8 C 57 % 1015,6 hPa 0,0 l/m 2 min 0 min 556 W/m 22,5 km/h (4 Bft) 97,78 %
10.04.2023 14:28 16,4 C 18,9 C 12,8 C 56 % 1015,6 hPa 0,0 l/m 2 min 0 min 657 W/m 25,7 km/h (4 Bft) 100,00 %
10.04.2023 14:30 16,6 C 19,4 C 12,8 C 56 % 1015,5 hPa 0,0 l/m 2 min 0 min 569 W/m 19,3 km/h (3 Bft) 98,00 %
10.04.2023 14:32 16,7 C 18,9 C 12,8 C 56 % 1015,6 hPa 0,0 l/m 2 min 0 min 499 W/m 22,5 km/h (4 Bft) 100,00 %
10.04.2023 14:34 16,8 C 18,9 C 13,3 C 56 % 1015,5 hPa 0,0 l/m 2 min 0 min 460 W/m 22,5 km/h (4 Bft) 100,00 %
10.04.2023 14:36 16,9 C 18,9 C 13,3 C 56 % 1015,5 hPa 0,0 l/m 2 min 0 min 433 W/m 19,3 km/h (3 Bft) 97,87 %
10.04.2023 14:38 17,0 C 18,3 C 13,3 C 55 % 1015,5 hPa 0,0 l/m 2 min 0 min 413 W/m 22,5 km/h (4 Bft) 100,00 %
10.04.2023 14:40 17,1 C 18,3 C 13,3 C 55 % 1015,4 hPa 0,0 l/m 2 min 0 min 403 W/m 16,1 km/h (3 Bft) 100,00 %
10.04.2023 14:42 17,2 C 18,3 C 13,3 C 55 % 1015,3 hPa 0,0 l/m 2 min 0 min 393 W/m 22,5 km/h (4 Bft) 97,87 %
10.04.2023 14:44 17,2 C 18,3 C 13,3 C 54 % 1015,4 hPa 0,0 l/m 2 min 0 min 397 W/m 19,3 km/h (3 Bft) 97,87 %
10.04.2023 14:46 17,3 C 18,3 C 13,3 C 54 % 1015,5 hPa 0,0 l/m 2 min 0 min 410 W/m 25,7 km/h (4 Bft) 100,00 %
10.04.2023 14:48 17,3 C 17,8 C 13,3 C 53 % 1015,4 hPa 0,0 l/m 2 min 0 min 389 W/m 25,7 km/h (4 Bft) 97,87 %
10.04.2023 14:50 17,3 C 17,8 C 13,3 C 53 % 1015,4 hPa 0,0 l/m 2 min 0 min 381 W/m 22,5 km/h (4 Bft) 100,00 %
10.04.2023 14:52 17,4 C 18,3 C 13,3 C 54 % 1015,3 hPa 0,0 l/m 2 min 0 min 403 W/m 22,5 km/h (4 Bft) 97,87 %
10.04.2023 14:54 17,4 C 18,3 C 13,3 C 54 % 1015,3 hPa 0,0 l/m 2 min 0 min 399 W/m 25,7 km/h (4 Bft) 100,00 %
10.04.2023 14:56 17,4 C 18,3 C 13,3 C 54 % 1015,3 hPa 0,0 l/m 2 min 0 min 387 W/m 29,0 km/h (5 Bft) 100,00 %
10.04.2023 14:58 17,5 C 18,3 C 13,3 C 54 % 1015,2 hPa 0,0 l/m 2 min 0 min 371 W/m 16,1 km/h (3 Bft) 100,00 %
10.04.2023 15:00 17,5 C 18,3 C 13,3 C 54 % 1015,2 hPa 0,0 l/m 2 min 0 min 351 W/m 22,5 km/h (4 Bft) 97,87 %
10.04.2023 15:02 17,6 C 18,3 C 13,3 C 54 % 1015,2 hPa 0,0 l/m 0 min 0 min 332 W/m 16,1 km/h (3 Bft) 100,00 %
10.04.2023 15:04 17,6 C 18,3 C 13,3 C 54 % 1015,2 hPa 0,0 l/m 0 min 0 min 314 W/m 19,3 km/h (3 Bft) 100,00 %
10.04.2023 15:06 17,7 C 18,3 C 13,3 C 53 % 1015,2 hPa 0,0 l/m 0 min 0 min 309 W/m 25,7 km/h (4 Bft) 98,31 %
10.04.2023 15:08 17,7 C 18,3 C 13,3 C 52 % 1015,2 hPa 0,0 l/m 2 min 0 min 333 W/m 19,3 km/h (3 Bft) 97,14 %
10.04.2023 15:10 17,7 C 18,3 C 13,3 C 50 % 1015,1 hPa 0,0 l/m 2 min 0 min 381 W/m 22,5 km/h (4 Bft) 97,87 %
10.04.2023 15:12 17,8 C 18,3 C 13,3 C 50 % 1015,1 hPa 0,0 l/m 2 min 0 min 411 W/m 29,0 km/h (5 Bft) 100,00 %
10.04.2023 15:14 17,8 C 18,9 C 13,3 C 50 % 1015,0 hPa 0,0 l/m 2 min 0 min 424 W/m 25,7 km/h (4 Bft) 97,87 %
10.04.2023 15:16 17,9 C 18,9 C 13,3 C 50 % 1015,0 hPa 0,0 l/m 2 min 0 min 415 W/m 22,5 km/h (4 Bft) 97,87 %
10.04.2023 15:18 18,0 C 19,4 C 13,9 C 50 % 1014,9 hPa 0,0 l/m 2 min 0 min 459 W/m 29,0 km/h (5 Bft) 100,00 %
10.04.2023 15:20 18,1 C 20,0 C 13,9 C 50 % 1014,8 hPa 0,0 l/m 2 min 0 min 534 W/m 16,1 km/h (3 Bft) 97,87 %
10.04.2023 15:22 18,2 C 20,0 C 13,9 C 50 % 1014,8 hPa 0,0 l/m 2 min 0 min 487 W/m 19,3 km/h (3 Bft) 100,00 %
10.04.2023 15:24 18,3 C 20,0 C 13,9 C 49 % 1014,8 hPa 0,0 l/m 2 min 0 min 468 W/m 22,5 km/h (4 Bft) 100,00 %
10.04.2023 15:26 18,4 C 20,0 C 13,9 C 48 % 1014,7 hPa 0,0 l/m 2 min 0 min 455 W/m 22,5 km/h (4 Bft) 97,87 %
10.04.2023 15:28 18,4 C 20,0 C 13,9 C 48 % 1014,7 hPa 0,0 l/m 2 min 0 min 480 W/m 22,5 km/h (4 Bft) 97,87 %
10.04.2023 15:30 18,5 C 20,0 C 13,9 C 48 % 1014,6 hPa 0,0 l/m 2 min 0 min 465 W/m 22,5 km/h (4 Bft) 95,74 %
10.04.2023 15:32 18,6 C 20,0 C 14,4 C 48 % 1014,5 hPa 0,0 l/m 2 min 0 min 451 W/m 29,0 km/h (5 Bft) 93,48 %
10.04.2023 15:34 18,6 C 20,0 C 14,4 C 48 % 1014,5 hPa 0,0 l/m 2 min 0 min 461 W/m 19,3 km/h (3 Bft) 95,74 %
10.04.2023 15:36 18,7 C 20,0 C 14,4 C 47 % 1014,4 hPa 0,0 l/m 2 min 0 min 527 W/m 41,8 km/h (6 Bft) 95,74 %
10.04.2023 15:38 18,7 C 21,1 C 14,4 C 47 % 1014,4 hPa 0,0 l/m 2 min 0 min 585 W/m 29,0 km/h (5 Bft) 93,62 %
10.04.2023 15:40 18,8 C 21,1 C 14,4 C 47 % 1014,4 hPa 0,0 l/m 2 min 0 min 605 W/m 32,2 km/h (5 Bft) 93,62 %
10.04.2023 15:42 18,9 C 20,6 C 14,4 C 47 % 1014,5 hPa 0,0 l/m 2 min 0 min 483 W/m 29,0 km/h (5 Bft) 93,62 %
10.04.2023 15:44 18,9 C 20,0 C 14,4 C 47 % 1014,3 hPa 0,0 l/m 2 min 0 min 366 W/m 22,5 km/h (4 Bft) 93,48 %
10.04.2023 15:46 18,9 C 19,4 C 13,9 C 46 % 1014,2 hPa 0,0 l/m 2 min 0 min 370 W/m 38,6 km/h (5 Bft) 91,49 %
10.04.2023 15:48 18,8 C 19,4 C 13,9 C 47 % 1014,1 hPa 0,0 l/m 2 min 0 min 373 W/m 32,2 km/h (5 Bft) 91,49 %
10.04.2023 15:50 18,8 C 19,4 C 13,9 C 47 % 1014,1 hPa 0,0 l/m 2 min 0 min 443 W/m 29,0 km/h (5 Bft) 93,62 %
10.04.2023 15:52 18,8 C 19,4 C 13,9 C 47 % 1014,1 hPa 0,0 l/m 2 min 0 min 398 W/m 16,1 km/h (3 Bft) 93,62 %
10.04.2023 15:54 18,8 C 19,4 C 14,4 C 47 % 1014,1 hPa 0,0 l/m 2 min 0 min 360 W/m 25,7 km/h (4 Bft) 93,62 %
10.04.2023 15:56 18,8 C 18,9 C 13,9 C 47 % 1014,0 hPa 0,0 l/m 2 min 0 min 331 W/m 29,0 km/h (5 Bft) 93,62 %
10.04.2023 15:58 18,7 C 18,9 C 13,9 C 47 % 1014,0 hPa 0,0 l/m 2 min 0 min 302 W/m 16,1 km/h (3 Bft) 93,48 %
10.04.2023 16:00 18,7 C 18,9 C 13,9 C 47 % 1014,0 hPa 0,0 l/m 0 min 0 min 280 W/m 25,7 km/h (4 Bft) 91,49 %
10.04.2023 16:02 18,7 C 18,3 C 13,9 C 47 % 1014,0 hPa 0,0 l/m 0 min 0 min 270 W/m 22,5 km/h (4 Bft) 91,49 %
10.04.2023 16:04 18,6 C 18,3 C 13,9 C 48 % 1014,0 hPa 0,0 l/m 0 min 0 min 262 W/m 22,5 km/h (4 Bft) 93,62 %
10.04.2023 16:06 18,6 C 18,3 C 13,9 C 48 % 1013,9 hPa 0,0 l/m 0 min 0 min 260 W/m 22,5 km/h (4 Bft) 92,45 %
10.04.2023 16:08 18,6 C 18,3 C 13,9 C 48 % 1013,9 hPa 0,0 l/m 0 min 0 min 262 W/m 22,5 km/h (4 Bft) 95,74 %
10.04.2023 16:10 18,5 C 18,3 C 13,9 C 48 % 1013,8 hPa 0,0 l/m 0 min 0 min 265 W/m 32,2 km/h (5 Bft) 97,87 %
10.04.2023 16:12 18,4 C 18,3 C 13,3 C 48 % 1013,7 hPa 0,0 l/m 0 min 0 min 270 W/m 19,3 km/h (3 Bft) 91,49 %
10.04.2023 16:14 18,4 C 18,3 C 13,3 C 48 % 1013,8 hPa 0,0 l/m 0 min 0 min 279 W/m 22,5 km/h (4 Bft) 97,87 %
10.04.2023 16:16 18,3 C 18,3 C 13,3 C 48 % 1013,7 hPa 0,0 l/m 2 min 0 min 306 W/m 25,7 km/h (4 Bft) 97,83 %
10.04.2023 16:18 18,3 C 18,3 C 13,3 C 49 % 1013,7 hPa 0,0 l/m 2 min 0 min 341 W/m 16,1 km/h (3 Bft) 97,87 %
10.04.2023 16:20 18,3 C 18,9 C 13,3 C 48 % 1013,6 hPa 0,0 l/m 2 min 0 min 400 W/m 29,0 km/h (5 Bft) 95,74 %
10.04.2023 16:22 18,3 C 18,9 C 13,9 C 49 % 1013,5 hPa 0,0 l/m 2 min 0 min 391 W/m 25,7 km/h (4 Bft) 97,87 %
10.04.2023 16:24 18,4 C 19,4 C 13,9 C 49 % 1013,5 hPa 0,0 l/m 2 min 0 min 397 W/m 19,3 km/h (3 Bft) 97,87 %
10.04.2023 16:26 18,4 C 19,4 C 13,9 C 49 % 1013,5 hPa 0,0 l/m 2 min 0 min 352 W/m 25,7 km/h (4 Bft) 97,87 %
10.04.2023 16:28 18,4 C 18,9 C 13,9 C 49 % 1013,4 hPa 0,0 l/m 2 min 0 min 309 W/m 22,5 km/h (4 Bft) 97,83 %
10.04.2023 16:30 18,5 C 18,9 C 13,9 C 49 % 1013,4 hPa 0,0 l/m 2 min 0 min 289 W/m 22,5 km/h (4 Bft) 95,74 %
10.04.2023 16:32 18,5 C 18,9 C 13,9 C 49 % 1013,3 hPa 0,0 l/m 2 min 0 min 279 W/m 19,3 km/h (3 Bft) 97,87 %
10.04.2023 16:34 18,5 C 18,9 C 13,9 C 49 % 1013,2 hPa 0,0 l/m 2 min 0 min 281 W/m 22,5 km/h (4 Bft) 97,87 %
10.04.2023 16:36 18,5 C 18,9 C 13,9 C 49 % 1013,1 hPa 0,0 l/m 2 min 0 min 317 W/m 25,7 km/h (4 Bft) 97,87 %
10.04.2023 16:38 18,5 C 18,9 C 13,9 C 49 % 1013,1 hPa 0,0 l/m 2 min 0 min 343 W/m 25,7 km/h (4 Bft) 97,87 %
10.04.2023 16:40 18,5 C 18,9 C 13,9 C 49 % 1013,1 hPa 0,0 l/m 2 min 0 min 290 W/m 16,1 km/h (3 Bft) 100,00 %
10.04.2023 16:42 18,6 C 18,9 C 13,9 C 49 % 1013,0 hPa 0,0 l/m 2 min 0 min 276 W/m 16,1 km/h (3 Bft) 100,00 %
10.04.2023 16:44 18,6 C 18,9 C 13,9 C 50 % 1013,0 hPa 0,0 l/m 2 min 0 min 272 W/m 19,3 km/h (3 Bft) 100,00 %
10.04.2023 16:46 18,6 C 18,9 C 13,9 C 50 % 1013,0 hPa 0,0 l/m 2 min 0 min 266 W/m 19,3 km/h (3 Bft) 100,00 %
10.04.2023 16:48 18,6 C 18,9 C 13,9 C 50 % 1013,0 hPa 0,0 l/m 2 min 0 min 264 W/m 22,5 km/h (4 Bft) 100,00 %
10.04.2023 16:50 18,6 C 18,9 C 13,9 C 50 % 1012,9 hPa 0,0 l/m 0 min 0 min 238 W/m 29,0 km/h (5 Bft) 100,00 %
10.04.2023 16:52 18,6 C 18,3 C 13,9 C 50 % 1012,9 hPa 0,0 l/m 0 min 0 min 209 W/m 25,7 km/h (4 Bft) 100,00 %
10.04.2023 16:54 18,5 C 18,3 C 13,9 C 50 % 1012,9 hPa 0,0 l/m 0 min 0 min 202 W/m 22,5 km/h (4 Bft) 100,00 %
10.04.2023 16:56 18,4 C 18,3 C 13,9 C 50 % 1012,9 hPa 0,0 l/m 0 min 0 min 198 W/m 16,1 km/h (3 Bft) 100,00 %
10.04.2023 16:58 18,4 C 18,3 C 13,9 C 50 % 1012,9 hPa 0,0 l/m 0 min 0 min 205 W/m 22,5 km/h (4 Bft) 100,00 %
10.04.2023 17:00 18,4 C 18,3 C 13,9 C 50 % 1012,9 hPa 0,0 l/m 0 min 0 min 202 W/m 22,5 km/h (4 Bft) 97,87 %
10.04.2023 17:02 18,4 C 17,8 C 13,3 C 50 % 1012,9 hPa 0,0 l/m 0 min 0 min 193 W/m 19,3 km/h (3 Bft) 97,87 %
10.04.2023 17:04 18,3 C 17,8 C 13,3 C 50 % 1012,8 hPa 0,0 l/m 0 min 0 min 174 W/m 29,0 km/h (5 Bft) 97,87 %
10.04.2023 17:06 18,3 C 17,8 C 13,3 C 50 % 1012,8 hPa 0,0 l/m 0 min 0 min 154 W/m 25,7 km/h (4 Bft) 100,00 %
10.04.2023 17:08 18,3 C 17,8 C 13,3 C 50 % 1012,8 hPa 0,0 l/m 0 min 0 min 140 W/m 29,0 km/h (5 Bft) 100,00 %
10.04.2023 17:10 18,3 C 17,8 C 13,3 C 49 % 1012,9 hPa 0,0 l/m 0 min 0 min 128 W/m 22,5 km/h (4 Bft) 100,00 %
10.04.2023 17:12 18,2 C 17,8 C 13,3 C 50 % 1012,8 hPa 0,0 l/m 0 min 0 min 126 W/m 38,6 km/h (5 Bft) 100,00 %
10.04.2023 17:14 18,2 C 17,2 C 13,3 C 49 % 1012,8 hPa 0,0 l/m 0 min 0 min 122 W/m 41,8 km/h (6 Bft) 100,00 %
10.04.2023 17:16 18,1 C 17,2 C 13,3 C 50 % 1012,8 hPa 0,0 l/m 0 min 0 min 118 W/m 22,5 km/h (4 Bft) 100,00 %
10.04.2023 17:18 18,1 C 17,2 C 13,3 C 50 % 1012,8 hPa 0,0 l/m 0 min 0 min 128 W/m 29,0 km/h (5 Bft) 97,87 %
10.04.2023 17:20 18,1 C 17,2 C 13,3 C 50 % 1012,7 hPa 0,0 l/m 0 min 0 min 144 W/m 22,5 km/h (4 Bft) 100,00 %
10.04.2023 17:22 18,1 C 17,2 C 13,3 C 50 % 1012,7 hPa 0,0 l/m 0 min 0 min 136 W/m 45,1 km/h (6 Bft) 97,87 %
10.04.2023 17:24 18,0 C 17,2 C 13,3 C 51 % 1012,7 hPa 0,0 l/m 0 min 0 min 129 W/m 35,4 km/h (5 Bft) 97,83 %
10.04.2023 17:26 18,0 C 17,2 C 13,3 C 51 % 1012,7 hPa 0,0 l/m 0 min 0 min 118 W/m 29,0 km/h (5 Bft) 100,00 %
10.04.2023 17:28 17,9 C 17,2 C 12,8 C 50 % 1012,7 hPa 0,0 l/m 0 min 0 min 113 W/m 35,4 km/h (5 Bft) 97,87 %
10.04.2023 17:30 17,9 C 17,2 C 12,8 C 50 % 1012,7 hPa 0,0 l/m 0 min 0 min 110 W/m 41,8 km/h (6 Bft) 100,00 %
10.04.2023 17:32 17,8 C 17,2 C 12,8 C 50 % 1012,7 hPa 0,0 l/m 0 min 0 min 112 W/m 35,4 km/h (5 Bft) 100,00 %
10.04.2023 17:34 17,8 C 17,2 C 12,8 C 50 % 1012,6 hPa 0,0 l/m 0 min 0 min 113 W/m 35,4 km/h (5 Bft) 100,00 %
10.04.2023 17:36 17,7 C 17,2 C 12,8 C 51 % 1012,5 hPa 0,0 l/m 0 min 0 min 114 W/m 25,7 km/h (4 Bft) 95,74 %
10.04.2023 17:38 17,7 C 17,2 C 12,8 C 51 % 1012,5 hPa 0,0 l/m 0 min 0 min 111 W/m 25,7 km/h (4 Bft) 97,83 %
10.04.2023 17:40 17,7 C 17,2 C 12,8 C 51 % 1012,6 hPa 0,0 l/m 0 min 0 min 101 W/m 35,4 km/h (5 Bft) 97,87 %
10.04.2023 17:42 17,7 C 16,7 C 12,8 C 51 % 1012,6 hPa 0,0 l/m 0 min 0 min 92 W/m 32,2 km/h (5 Bft) 97,87 %
10.04.2023 17:44 17,7 C 16,7 C 12,8 C 52 % 1012,5 hPa 0,0 l/m 0 min 0 min 85 W/m 25,7 km/h (4 Bft) 97,87 %
10.04.2023 17:46 17,6 C 16,7 C 12,8 C 51 % 1012,4 hPa 0,0 l/m 0 min 0 min 79 W/m 29,0 km/h (5 Bft) 97,87 %
10.04.2023 17:48 17,6 C 16,7 C 12,8 C 52 % 1012,5 hPa 0,0 l/m 0 min 0 min 85 W/m 22,5 km/h (4 Bft) 97,87 %
10.04.2023 17:50 17,6 C 16,7 C 12,8 C 52 % 1012,5 hPa 0,0 l/m 0 min 0 min 96 W/m 45,1 km/h (6 Bft) 97,87 %
10.04.2023 17:52 17,6 C 16,7 C 12,8 C 52 % 1012,4 hPa 0,0 l/m 0 min 0 min 109 W/m 38,6 km/h (5 Bft) 100,00 %
10.04.2023 17:54 17,5 C 16,7 C 12,2 C 54 % 1012,4 hPa 0,0 l/m 0 min 2 min 97 W/m 22,5 km/h (4 Bft) 97,87 %
10.04.2023 17:56 17,5 C 16,1 C 12,2 C 54 % 1012,5 hPa 0,0 l/m 0 min 2 min 75 W/m 22,5 km/h (4 Bft) 97,87 %
10.04.2023 17:58 17,4 C 16,1 C 11,7 C 55 % 1012,5 hPa 0,0 l/m 0 min 0 min 61 W/m 19,3 km/h (3 Bft) 97,87 %
10.04.2023 18:00 17,4 C 16,1 C 11,1 C 56 % 1012,7 hPa 0,0 l/m 0 min 0 min 54 W/m 35,4 km/h (5 Bft) 97,87 %
10.04.2023 18:02 17,3 C 15,6 C 11,1 C 56 % 1012,6 hPa 0,0 l/m 0 min 2 min 49 W/m 41,8 km/h (6 Bft) 97,87 %
10.04.2023 18:04 17,1 C 15,6 C 11,1 C 57 % 1012,6 hPa 0,0 l/m 0 min 2 min 41 W/m 35,4 km/h (5 Bft) 95,65 %
10.04.2023 18:07 16,9 C 15,6 C 10,6 C 58 % 1012,9 hPa 0,0 l/m 0 min 3 min 39 W/m 38,6 km/h (5 Bft) 95,89 %
10.04.2023 18:08 16,8 C 15,6 C 10,6 C 58 % 1012,9 hPa 0,0 l/m 0 min 1 min 39 W/m 25,7 km/h (4 Bft) 95,65 %
10.04.2023 18:12 16,6 C 14,4 C 8,3 C 62 % 1012,7 hPa 0,0 l/m 0 min 4 min 39 W/m 19,3 km/h (3 Bft) 96,55 %
10.04.2023 18:14 16,3 C 14,4 C 7,8 C 63 % 1012,7 hPa 0,0 l/m 0 min 2 min 37 W/m 35,4 km/h (5 Bft) 97,83 %
10.04.2023 18:16 16,1 C 14,4 C 7,8 C 63 % 1012,5 hPa 0,0 l/m 0 min 2 min 29 W/m 35,4 km/h (5 Bft) 95,74 %
10.04.2023 18:18 15,9 C 13,9 C 7,8 C 64 % 1012,5 hPa 0,0 l/m 0 min 0 min 28 W/m 29,0 km/h (5 Bft) 97,87 %
10.04.2023 18:20 15,7 C 13,9 C 7,8 C 65 % 1012,4 hPa 0,0 l/m 0 min 2 min 28 W/m 19,3 km/h (3 Bft) 97,87 %
10.04.2023 18:22 15,6 C 13,9 C 7,8 C 66 % 1012,3 hPa 0,0 l/m 0 min 2 min 28 W/m 22,5 km/h (4 Bft) 97,87 %
10.04.2023 18:24 15,4 C 13,3 C 7,2 C 67 % 1012,0 hPa 0,2 l/m 0 min 2 min 30 W/m 22,5 km/h (4 Bft) 93,62 %
10.04.2023 18:26 15,3 C 13,3 C 7,2 C 67 % 1011,9 hPa 0,0 l/m 0 min 2 min 29 W/m 22,5 km/h (4 Bft) 97,87 %
10.04.2023 18:28 15,2 C 13,3 C 7,2 C 68 % 1011,6 hPa 0,0 l/m 0 min 2 min 25 W/m 16,1 km/h (3 Bft) 97,83 %
10.04.2023 18:30 15,1 C 13,3 C 7,2 C 68 % 1011,8 hPa 0,0 l/m 0 min 0 min 20 W/m 22,5 km/h (4 Bft) 97,92 %
10.04.2023 18:32 15,0 C 13,3 C 7,2 C 69 % 1011,8 hPa 0,0 l/m 0 min 0 min 15 W/m 16,1 km/h (3 Bft) 95,74 %
10.04.2023 18:34 14,9 C 13,3 C 7,8 C 69 % 1011,6 hPa 0,0 l/m 0 min 0 min 16 W/m 12,9 km/h (3 Bft) 97,87 %
10.04.2023 18:36 14,8 C 13,3 C 7,8 C 70 % 1011,6 hPa 0,0 l/m 0 min 0 min 18 W/m 16,1 km/h (3 Bft) 97,87 %
10.04.2023 18:38 14,8 C 13,3 C 7,8 C 70 % 1011,6 hPa 0,0 l/m 0 min 0 min 21 W/m 19,3 km/h (3 Bft) 97,87 %
10.04.2023 18:40 14,7 C 13,3 C 8,3 C 70 % 1011,6 hPa 0,0 l/m 0 min 0 min 23 W/m 19,3 km/h (3 Bft) 97,83 %
10.04.2023 18:42 14,6 C 13,3 C 8,3 C 70 % 1011,5 hPa 0,0 l/m 0 min 0 min 22 W/m 16,1 km/h (3 Bft) 95,74 %
10.04.2023 18:44 14,6 C 13,3 C 8,9 C 70 % 1011,5 hPa 0,0 l/m 0 min 0 min 19 W/m 16,1 km/h (3 Bft) 93,62 %
10.04.2023 18:46 14,6 C 13,3 C 8,9 C 70 % 1011,5 hPa 0,0 l/m 0 min 0 min 17 W/m 22,5 km/h (4 Bft) 97,87 %
10.04.2023 18:48 14,5 C 13,3 C 9,4 C 70 % 1011,5 hPa 0,0 l/m 0 min 0 min 18 W/m 16,1 km/h (3 Bft) 93,62 %
10.04.2023 18:50 14,4 C 13,3 C 8,9 C 70 % 1011,5 hPa 0,0 l/m 0 min 2 min 21 W/m 12,9 km/h (3 Bft) 95,74 %
10.04.2023 18:52 14,4 C 13,3 C 8,9 C 71 % 1011,5 hPa 0,0 l/m 0 min 2 min 24 W/m 16,1 km/h (3 Bft) 93,62 %
10.04.2023 18:54 14,4 C 13,3 C 8,9 C 71 % 1011,5 hPa 0,0 l/m 0 min 2 min 22 W/m 16,1 km/h (3 Bft) 95,65 %
10.04.2023 18:56 14,4 C 13,3 C 8,9 C 71 % 1011,6 hPa 0,0 l/m 0 min 2 min 21 W/m 12,9 km/h (3 Bft) 95,74 %
10.04.2023 18:58 14,3 C 13,3 C 8,9 C 72 % 1011,5 hPa 0,0 l/m 0 min 2 min 22 W/m 6,4 km/h (2 Bft) 95,74 %
10.04.2023 19:00 14,3 C 13,3 C 8,3 C 72 % 1011,4 hPa 0,0 l/m 0 min 2 min 19 W/m 12,9 km/h (3 Bft) 97,87 %
10.04.2023 19:02 14,3 C 13,3 C 8,3 C 72 % 1011,3 hPa 0,0 l/m 0 min 2 min 22 W/m 12,9 km/h (3 Bft) 95,74 %
10.04.2023 19:04 14,3 C 13,3 C 8,3 C 73 % 1011,2 hPa 0,0 l/m 0 min 2 min 26 W/m 16,1 km/h (3 Bft) 97,92 %
10.04.2023 19:06 14,3 C 13,3 C 8,9 C 73 % 1011,1 hPa 0,0 l/m 0 min 0 min 30 W/m 19,3 km/h (3 Bft) 97,87 %
10.04.2023 19:08 14,3 C 13,3 C 8,9 C 73 % 1011,1 hPa 0,0 l/m 0 min 0 min 29 W/m 16,1 km/h (3 Bft) 95,65 %
10.04.2023 19:10 14,3 C 13,3 C 8,9 C 72 % 1011,1 hPa 0,0 l/m 0 min 0 min 32 W/m 12,9 km/h (3 Bft) 95,74 %
10.04.2023 19:12 14,3 C 13,3 C 8,9 C 72 % 1011,0 hPa 0,0 l/m 0 min 2 min 34 W/m 16,1 km/h (3 Bft) 95,74 %
10.04.2023 19:14 14,3 C 13,3 C 8,9 C 72 % 1011,0 hPa 0,0 l/m 0 min 2 min 25 W/m 16,1 km/h (3 Bft) 97,87 %
10.04.2023 19:16 14,3 C 13,3 C 8,3 C 72 % 1011,0 hPa 0,0 l/m 0 min 2 min 14 W/m 22,5 km/h (4 Bft) 97,87 %
10.04.2023 19:18 14,3 C 13,3 C 8,3 C 71 % 1011,0 hPa 0,0 l/m 0 min 2 min 9 W/m 16,1 km/h (3 Bft) 95,74 %
10.04.2023 19:20 14,3 C 13,3 C 8,3 C 72 % 1010,9 hPa 0,0 l/m 0 min 0 min 9 W/m 12,9 km/h (3 Bft) 95,65 %
10.04.2023 19:22 14,3 C 13,3 C 8,9 C 72 % 1010,9 hPa 0,0 l/m 0 min 0 min 11 W/m 9,7 km/h (2 Bft) 97,87 %
10.04.2023 19:24 14,3 C 13,3 C 8,9 C 72 % 1010,8 hPa 0,0 l/m 0 min 2 min 11 W/m 16,1 km/h (3 Bft) 97,87 %
10.04.2023 19:26 14,3 C 13,3 C 8,9 C 72 % 1010,9 hPa 0,0 l/m 0 min 2 min 11 W/m 16,1 km/h (3 Bft) 100,00 %
10.04.2023 19:28 14,3 C 13,3 C 8,3 C 72 % 1011,0 hPa 0,0 l/m 0 min 2 min 8 W/m 12,9 km/h (3 Bft) 95,74 %
10.04.2023 19:30 14,3 C 13,3 C 8,3 C 72 % 1011,0 hPa 0,0 l/m 0 min 2 min 7 W/m 9,7 km/h (2 Bft) 97,87 %
10.04.2023 19:32 14,3 C 13,3 C 7,8 C 73 % 1011,1 hPa 0,0 l/m 0 min 2 min 7 W/m 16,1 km/h (3 Bft) 97,87 %
10.04.2023 19:34 14,2 C 13,3 C 7,8 C 73 % 1011,2 hPa 0,0 l/m 0 min 2 min 8 W/m 16,1 km/h (3 Bft) 97,83 %
10.04.2023 19:36 14,2 C 12,8 C 7,8 C 73 % 1011,2 hPa 0,0 l/m 0 min 2 min 9 W/m 12,9 km/h (3 Bft) 95,74 %
10.04.2023 19:38 14,1 C 12,8 C 7,8 C 73 % 1011,2 hPa 0,0 l/m 0 min 2 min 9 W/m 19,3 km/h (3 Bft) 97,87 %
10.04.2023 19:40 14,1 C 12,8 C 7,8 C 74 % 1011,3 hPa 0,0 l/m 0 min 2 min 7 W/m 16,1 km/h (3 Bft) 97,87 %
10.04.2023 19:42 14,1 C 12,8 C 7,8 C 74 % 1011,3 hPa 0,0 l/m 0 min 2 min 5 W/m 16,1 km/h (3 Bft) 95,74 %
10.04.2023 19:44 14,0 C 12,8 C 7,2 C 74 % 1011,4 hPa 0,0 l/m 0 min 2 min 5 W/m 25,7 km/h (4 Bft) 97,87 %
10.04.2023 19:46 14,0 C 12,8 C 7,2 C 74 % 1011,4 hPa 0,0 l/m 0 min 2 min 6 W/m 16,1 km/h (3 Bft) 97,87 %
10.04.2023 19:48 13,9 C 12,8 C 7,2 C 75 % 1011,4 hPa 0,2 l/m 0 min 2 min 9 W/m 16,1 km/h (3 Bft) 97,83 %
10.04.2023 19:50 13,9 C 12,2 C 6,7 C 75 % 1011,3 hPa 0,0 l/m 0 min 2 min 12 W/m 19,3 km/h (3 Bft) 97,87 %
10.04.2023 19:52 13,8 C 11,7 C 6,7 C 77 % 1011,4 hPa 0,2 l/m 0 min 2 min 12 W/m 32,2 km/h (5 Bft) 95,74 %
10.04.2023 19:54 13,7 C 11,7 C 6,7 C 76 % 1011,2 hPa 0,0 l/m 0 min 2 min 11 W/m 32,2 km/h (5 Bft) 97,87 %
10.04.2023 19:56 13,6 C 11,7 C 6,1 C 76 % 1011,3 hPa 0,0 l/m 0 min 2 min 6 W/m 32,2 km/h (5 Bft) 95,74 %
10.04.2023 19:58 13,6 C 11,7 C 6,1 C 76 % 1011,2 hPa 0,0 l/m 0 min 2 min 5 W/m 19,3 km/h (3 Bft) 100,00 %
10.04.2023 20:00 13,6 C 11,7 C 6,7 C 77 % 1011,1 hPa 0,0 l/m 0 min 2 min 2 W/m 16,1 km/h (3 Bft) 100,00 %
10.04.2023 20:02 13,5 C 11,7 C 6,7 C 77 % 1011,1 hPa 0,0 l/m 0 min 2 min 0 W/m 22,5 km/h (4 Bft) 100,00 %
10.04.2023 20:04 13,5 C 11,7 C 6,7 C 78 % 1011,1 hPa 0,0 l/m 0 min 2 min 0 W/m 16,1 km/h (3 Bft) 97,87 %
10.04.2023 20:06 13,4 C 12,2 C 6,7 C 78 % 1011,2 hPa 0,0 l/m 0 min 0 min 0 W/m 19,3 km/h (3 Bft) 97,87 %
10.04.2023 20:08 13,4 C 12,2 C 6,7 C 78 % 1011,2 hPa 0,0 l/m 0 min 2 min 0 W/m 12,9 km/h (3 Bft) 100,00 %
10.04.2023 20:10 13,3 C 12,2 C 6,7 C 78 % 1011,2 hPa 0,0 l/m 0 min 2 min 0 W/m 12,9 km/h (3 Bft) 100,00 %
10.04.2023 20:12 13,3 C 12,2 C 6,7 C 78 % 1011,2 hPa 0,0 l/m 0 min 2 min 0 W/m 22,5 km/h (4 Bft) 100,00 %
10.04.2023 20:14 13,3 C 12,2 C 6,7 C 79 % 1011,3 hPa 0,0 l/m 0 min 2 min 0 W/m 12,9 km/h (3 Bft) 100,00 %
10.04.2023 20:16 13,3 C 12,2 C 6,7 C 79 % 1011,3 hPa 0,0 l/m 0 min 0 min 0 W/m 9,7 km/h (2 Bft) 100,00 %
10.04.2023 20:18 13,3 C 12,2 C 6,7 C 79 % 1011,3 hPa 0,0 l/m 0 min 0 min 0 W/m 6,4 km/h (2 Bft) 100,00 %
10.04.2023 20:20 13,2 C 12,2 C 6,7 C 80 % 1011,4 hPa 0,0 l/m 0 min 0 min 0 W/m 12,9 km/h (3 Bft) 100,00 %
10.04.2023 20:22 13,2 C 12,2 C 6,7 C 80 % 1011,4 hPa 0,0 l/m 0 min 0 min 0 W/m 16,1 km/h (3 Bft) 97,87 %
10.04.2023 20:24 13,2 C 11,7 C 6,7 C 80 % 1011,5 hPa 0,0 l/m 0 min 2 min 0 W/m 6,4 km/h (2 Bft) 97,87 %
10.04.2023 20:26 13,2 C 11,7 C 6,7 C 80 % 1011,5 hPa 0,0 l/m 0 min 2 min 0 W/m 12,9 km/h (3 Bft) 100,00 %
10.04.2023 20:28 13,1 C 11,7 C 6,7 C 80 % 1011,4 hPa 0,0 l/m 0 min 2 min 0 W/m 6,4 km/h (2 Bft) 97,83 %
10.04.2023 20:30 13,1 C 11,7 C 6,7 C 81 % 1011,3 hPa 0,0 l/m 0 min 2 min 0 W/m 6,4 km/h (2 Bft) 100,00 %
10.04.2023 20:32 13,1 C 11,7 C 6,7 C 81 % 1011,4 hPa 0,2 l/m 0 min 2 min 0 W/m 3,2 km/h (1 Bft) 100,00 %
10.04.2023 20:34 13,1 C 11,7 C 6,7 C 81 % 1011,4 hPa 0,0 l/m 0 min 2 min 0 W/m 9,7 km/h (2 Bft) 100,00 %
10.04.2023 20:36 13,0 C 11,7 C 6,7 C 82 % 1011,3 hPa 0,0 l/m 0 min 2 min 0 W/m 19,3 km/h (3 Bft) 100,00 %
10.04.2023 20:38 12,9 C 11,7 C 6,7 C 81 % 1011,4 hPa 0,0 l/m 0 min 2 min 0 W/m 29,0 km/h (5 Bft) 100,00 %
10.04.2023 20:40 12,9 C 12,2 C 6,7 C 81 % 1011,3 hPa 0,0 l/m 0 min 2 min 0 W/m 22,5 km/h (4 Bft) 97,87 %
10.04.2023 20:42 12,9 C 12,2 C 6,7 C 81 % 1011,4 hPa 0,0 l/m 0 min 2 min 0 W/m 16,1 km/h (3 Bft) 100,00 %
10.04.2023 20:44 12,9 C 12,2 C 6,7 C 81 % 1011,6 hPa 0,0 l/m 0 min 0 min 0 W/m 12,9 km/h (3 Bft) 100,00 %
10.04.2023 20:46 12,9 C 12,2 C 6,7 C 81 % 1011,7 hPa 0,0 l/m 0 min 2 min 0 W/m 12,9 km/h (3 Bft) 97,87 %
10.04.2023 20:48 12,9 C 11,7 C 6,7 C 82 % 1011,8 hPa 0,0 l/m 0 min 2 min 0 W/m 9,7 km/h (2 Bft) 100,00 %
10.04.2023 20:50 12,8 C 11,7 C 6,7 C 83 % 1011,8 hPa 0,0 l/m 0 min 2 min 0 W/m 29,0 km/h (5 Bft) 97,87 %
10.04.2023 20:52 12,8 C 11,7 C 6,7 C 83 % 1011,8 hPa 0,2 l/m 0 min 2 min 0 W/m 22,5 km/h (4 Bft) 95,74 %
10.04.2023 20:54 12,7 C 11,7 C 6,7 C 83 % 1011,7 hPa 0,0 l/m 0 min 2 min 0 W/m 25,7 km/h (4 Bft) 100,00 %
10.04.2023 20:56 12,7 C 11,7 C 6,7 C 84 % 1011,6 hPa 0,0 l/m 0 min 2 min 0 W/m 22,5 km/h (4 Bft) 100,00 %
10.04.2023 20:58 12,6 C 11,7 C 6,7 C 85 % 1011,9 hPa 0,0 l/m 0 min 2 min 0 W/m 22,5 km/h (4 Bft) 100,00 %
10.04.2023 21:00 12,5 C 11,1 C 6,7 C 85 % 1012,0 hPa 0,0 l/m 0 min 2 min 0 W/m 19,3 km/h (3 Bft) 97,87 %
10.04.2023 21:02 12,4 C 11,1 C 6,7 C 86 % 1011,9 hPa 0,0 l/m 0 min 2 min 0 W/m 12,9 km/h (3 Bft) 100,00 %
10.04.2023 21:04 12,3 C 11,1 C 6,7 C 87 % 1012,0 hPa 0,2 l/m 0 min 2 min 0 W/m 22,5 km/h (4 Bft) 100,00 %
10.04.2023 21:06 12,2 C 10,6 C 6,1 C 87 % 1012,0 hPa 0,2 l/m 0 min 2 min 0 W/m 16,1 km/h (3 Bft) 96,08 %
10.04.2023 21:08 12,0 C 10,6 C 6,1 C 88 % 1012,0 hPa 0,2 l/m 0 min 2 min 0 W/m 12,9 km/h (3 Bft) 93,62 %
10.04.2023 21:10 11,8 C 10,0 C 6,1 C 88 % 1012,0 hPa 0,0 l/m 0 min 2 min 0 W/m 16,1 km/h (3 Bft) 97,83 %
10.04.2023 21:12 11,7 C 10,0 C 6,1 C 88 % 1012,0 hPa 0,0 l/m 0 min 2 min 0 W/m 12,9 km/h (3 Bft) 97,87 %
10.04.2023 21:14 11,6 C 10,0 C 6,1 C 89 % 1012,0 hPa 0,0 l/m 0 min 2 min 0 W/m 9,7 km/h (2 Bft) 95,74 %
10.04.2023 21:16 11,4 C 10,0 C 6,1 C 89 % 1012,0 hPa 0,2 l/m 0 min 2 min 0 W/m 19,3 km/h (3 Bft) 95,74 %
10.04.2023 21:18 11,4 C 10,0 C 6,1 C 89 % 1012,0 hPa 0,0 l/m 0 min 2 min 0 W/m 19,3 km/h (3 Bft) 93,62 %
10.04.2023 21:20 11,3 C 10,0 C 6,1 C 90 % 1011,9 hPa 0,0 l/m 0 min 2 min 0 W/m 16,1 km/h (3 Bft) 95,74 %
10.04.2023 21:22 11,3 C 10,0 C 6,1 C 90 % 1011,9 hPa 0,0 l/m 0 min 2 min 0 W/m 12,9 km/h (3 Bft) 95,65 %
10.04.2023 21:24 11,2 C 10,0 C 6,1 C 90 % 1011,9 hPa 0,0 l/m 0 min 2 min 0 W/m 12,9 km/h (3 Bft) 95,74 %
10.04.2023 21:26 11,2 C 10,0 C 6,1 C 90 % 1011,7 hPa 0,0 l/m 0 min 2 min 0 W/m 12,9 km/h (3 Bft) 93,62 %
10.04.2023 21:28 11,1 C 10,0 C 6,1 C 91 % 1011,7 hPa 0,0 l/m 0 min 2 min 0 W/m 16,1 km/h (3 Bft) 91,49 %
10.04.2023 21:30 11,1 C 10,0 C 6,1 C 91 % 1011,6 hPa 0,0 l/m 0 min 2 min 0 W/m 12,9 km/h (3 Bft) 43,59 %
10.04.2023 21:32 11,1 C 10,0 C 6,1 C 91 % 1011,5 hPa 0,0 l/m 0 min 2 min 0 W/m 19,3 km/h (3 Bft) 91,49 %
10.04.2023 21:34 11,0 C 10,0 C 6,1 C 91 % 1011,4 hPa 0,0 l/m 0 min 2 min 0 W/m 16,1 km/h (3 Bft) 91,49 %
10.04.2023 21:36 11,0 C 10,0 C 6,1 C 91 % 1011,4 hPa 0,0 l/m 0 min 0 min 0 W/m 12,9 km/h (3 Bft) 94,29 %
10.04.2023 21:38 11,0 C 10,0 C 6,1 C 92 % 1011,6 hPa 0,0 l/m 0 min 2 min 0 W/m 6,4 km/h (2 Bft) 93,62 %
10.04.2023 21:40 10,9 C 10,0 C 6,1 C 92 % 1011,6 hPa 0,0 l/m 0 min 2 min 0 W/m 6,4 km/h (2 Bft) 96,55 %
10.04.2023 21:42 10,9 C 10,0 C 6,1 C 92 % 1011,6 hPa 0,2 l/m 0 min 2 min 0 W/m 9,7 km/h (2 Bft) 93,62 %
10.04.2023 21:44 10,9 C 10,0 C 6,1 C 92 % 1011,5 hPa 0,0 l/m 0 min 2 min 0 W/m 12,9 km/h (3 Bft) 95,74 %
10.04.2023 21:46 10,9 C 10,0 C 6,1 C 92 % 1011,6 hPa 0,0 l/m 0 min 2 min 0 W/m 9,7 km/h (2 Bft) 95,24 %
10.04.2023 21:48 10,9 C 10,0 C 6,1 C 92 % 1011,8 hPa 0,0 l/m 0 min 2 min 0 W/m 12,9 km/h (3 Bft) 97,87 %
10.04.2023 21:50 10,9 C 10,0 C 6,1 C 93 % 1011,7 hPa 0,0 l/m 0 min 2 min 0 W/m 12,9 km/h (3 Bft) 97,87 %
10.04.2023 21:52 10,9 C 10,0 C 6,1 C 93 % 1011,8 hPa 0,0 l/m 0 min 2 min 0 W/m 19,3 km/h (3 Bft) 95,65 %
10.04.2023 21:54 10,9 C 10,0 C 6,1 C 93 % 1011,8 hPa 0,0 l/m 0 min 2 min 0 W/m 16,1 km/h (3 Bft) 95,74 %
10.04.2023 21:56 10,9 C 10,0 C 6,1 C 93 % 1011,6 hPa 0,0 l/m 0 min 2 min 0 W/m 16,1 km/h (3 Bft) 97,87 %
10.04.2023 21:58 10,9 C 10,0 C 6,1 C 93 % 1011,6 hPa 0,0 l/m 0 min 2 min 0 W/m 19,3 km/h (3 Bft) 97,87 %
10.04.2023 22:00 10,9 C 10,0 C 6,1 C 93 % 1011,5 hPa 0,2 l/m 0 min 2 min 0 W/m 19,3 km/h (3 Bft) 97,87 %
10.04.2023 22:02 10,9 C 10,0 C 6,1 C 93 % 1011,5 hPa 0,0 l/m 0 min 2 min 0 W/m 12,9 km/h (3 Bft) 97,87 %
10.04.2023 22:04 10,8 C 10,0 C 6,1 C 93 % 1011,5 hPa 0,0 l/m 0 min 2 min 0 W/m 6,4 km/h (2 Bft) 97,87 %
10.04.2023 22:06 10,8 C 10,0 C 6,1 C 93 % 1011,4 hPa 0,0 l/m 0 min 2 min 0 W/m 22,5 km/h (4 Bft) 97,83 %
10.04.2023 22:08 10,8 C 10,0 C 6,1 C 93 % 1011,2 hPa 0,0 l/m 0 min 2 min 0 W/m 12,9 km/h (3 Bft) 95,35 %
10.04.2023 22:10 10,8 C 10,0 C 6,1 C 93 % 1011,2 hPa 0,0 l/m 0 min 2 min 0 W/m 9,7 km/h (2 Bft) 95,74 %
10.04.2023 22:12 10,8 C 10,0 C 6,1 C 93 % 1011,3 hPa 0,0 l/m 0 min 2 min 0 W/m 9,7 km/h (2 Bft) 97,87 %
10.04.2023 22:14 10,8 C 10,0 C 6,1 C 93 % 1011,3 hPa 0,0 l/m 0 min 0 min 0 W/m 6,4 km/h (2 Bft) 97,87 %
10.04.2023 22:16 10,8 C 10,0 C 6,1 C 93 % 1011,4 hPa 0,0 l/m 0 min 0 min 0 W/m 16,1 km/h (3 Bft) 97,87 %
10.04.2023 22:18 10,7 C 10,0 C 5,6 C 93 % 1011,4 hPa 0,0 l/m 0 min 0 min 0 W/m 19,3 km/h (3 Bft) 97,92 %
10.04.2023 22:20 10,7 C 10,0 C 5,6 C 94 % 1011,4 hPa 0,0 l/m 0 min 2 min 0 W/m 12,9 km/h (3 Bft) 97,83 %
10.04.2023 22:22 10,7 C 10,0 C 5,6 C 94 % 1011,5 hPa 0,0 l/m 0 min 2 min 0 W/m 16,1 km/h (3 Bft) 97,87 %
10.04.2023 22:24 10,7 C 10,0 C 5,6 C 94 % 1011,6 hPa 0,0 l/m 0 min 2 min 0 W/m 12,9 km/h (3 Bft) 95,74 %
10.04.2023 22:26 10,7 C 10,0 C 5,6 C 94 % 1011,6 hPa 0,0 l/m 0 min 2 min 0 W/m 16,1 km/h (3 Bft) 100,00 %
10.04.2023 22:28 10,6 C 10,0 C 5,6 C 94 % 1011,7 hPa 0,0 l/m 0 min 2 min 0 W/m 22,5 km/h (4 Bft) 97,73 %
10.04.2023 22:30 10,6 C 9,4 C 5,6 C 93 % 1011,7 hPa 0,0 l/m 0 min 2 min 0 W/m 16,1 km/h (3 Bft) 100,00 %
10.04.2023 22:32 10,6 C 9,4 C 5,6 C 93 % 1011,7 hPa 0,2 l/m 0 min 2 min 0 W/m 6,4 km/h (2 Bft) 100,00 %
10.04.2023 22:34 10,6 C 9,4 C 5,6 C 93 % 1011,9 hPa 0,0 l/m 0 min 2 min 0 W/m 22,5 km/h (4 Bft) 100,00 %
10.04.2023 22:36 10,6 C 9,4 C 5,6 C 93 % 1011,8 hPa 0,0 l/m 0 min 2 min 0 W/m 16,1 km/h (3 Bft) 100,00 %
10.04.2023 22:38 10,5 C 9,4 C 5,6 C 93 % 1011,6 hPa 0,2 l/m 0 min 2 min 0 W/m 16,1 km/h (3 Bft) 98,00 %
10.04.2023 22:40 10,4 C 9,4 C 5,6 C 93 % 1011,6 hPa 0,0 l/m 0 min 2 min 0 W/m 25,7 km/h (4 Bft) 100,00 %
10.04.2023 22:42 10,4 C 9,4 C 5,6 C 93 % 1011,5 hPa 0,0 l/m 0 min 2 min 0 W/m 16,1 km/h (3 Bft) 100,00 %
10.04.2023 22:44 10,3 C 9,4 C 5,0 C 92 % 1011,3 hPa 0,0 l/m 0 min 2 min 0 W/m 29,0 km/h (5 Bft) 100,00 %
10.04.2023 22:46 10,3 C 9,4 C 5,6 C 92 % 1011,3 hPa 0,0 l/m 0 min 2 min 0 W/m 19,3 km/h (3 Bft) 100,00 %
10.04.2023 22:48 10,3 C 8,9 C 5,0 C 92 % 1011,2 hPa 0,2 l/m 0 min 2 min 0 W/m 22,5 km/h (4 Bft) 100,00 %
10.04.2023 22:50 10,3 C 8,9 C 5,0 C 92 % 1011,1 hPa 0,0 l/m 0 min 2 min 0 W/m 22,5 km/h (4 Bft) 100,00 %
10.04.2023 22:52 10,2 C 8,9 C 5,0 C 92 % 1011,0 hPa 0,0 l/m 0 min 2 min 0 W/m 38,6 km/h (5 Bft) 100,00 %
10.04.2023 22:54 10,2 C 8,9 C 5,0 C 92 % 1010,9 hPa 0,0 l/m 0 min 2 min 0 W/m 19,3 km/h (3 Bft) 100,00 %
10.04.2023 22:56 10,1 C 8,9 C 5,0 C 92 % 1010,8 hPa 0,0 l/m 0 min 2 min 0 W/m 16,1 km/h (3 Bft) 100,00 %
10.04.2023 22:58 10,1 C 8,9 C 5,0 C 91 % 1010,7 hPa 0,0 l/m 0 min 0 min 0 W/m 22,5 km/h (4 Bft) 97,83 %
10.04.2023 23:00 10,1 C 8,9 C 5,0 C 91 % 1010,7 hPa 0,0 l/m 0 min 0 min 0 W/m 12,9 km/h (3 Bft) 100,00 %
10.04.2023 23:02 10,1 C 8,9 C 5,0 C 91 % 1010,8 hPa 0,0 l/m 0 min 2 min 0 W/m 16,1 km/h (3 Bft) 97,14 %
10.04.2023 23:04 10,1 C 8,3 C 5,0 C 91 % 1010,7 hPa 0,0 l/m 0 min 2 min 0 W/m 19,3 km/h (3 Bft) 97,92 %
10.04.2023 23:06 10,0 C 8,9 C 5,0 C 91 % 1010,5 hPa 0,0 l/m 0 min 2 min 0 W/m 22,5 km/h (4 Bft) 98,31 %
10.04.2023 23:08 9,9 C 8,3 C 5,0 C 91 % 1010,4 hPa 0,0 l/m 0 min 2 min 0 W/m 16,1 km/h (3 Bft) 97,14 %
10.04.2023 23:10 9,9 C 8,3 C 5,0 C 91 % 1010,6 hPa 0,0 l/m 0 min 0 min 0 W/m 9,7 km/h (2 Bft) 97,87 %
10.04.2023 23:12 9,9 C 8,3 C 5,0 C 91 % 1010,7 hPa 0,0 l/m 0 min 0 min 0 W/m 16,1 km/h (3 Bft) 95,74 %
10.04.2023 23:14 9,9 C 8,9 C 5,0 C 92 % 1010,8 hPa 0,0 l/m 0 min 0 min 0 W/m 22,5 km/h (4 Bft) 97,87 %
10.04.2023 23:16 9,9 C 8,9 C 5,0 C 92 % 1010,9 hPa 0,0 l/m 0 min 0 min 0 W/m 12,9 km/h (3 Bft) 57,14 %
10.04.2023 23:18 9,9 C 8,9 C 5,0 C 91 % 1010,8 hPa 0,0 l/m 0 min 0 min 0 W/m 6,4 km/h (2 Bft) 91,67 %
10.04.2023 23:20 9,9 C 8,9 C 5,0 C 91 % 1010,6 hPa 0,0 l/m 0 min 0 min 0 W/m 12,9 km/h (3 Bft) 97,87 %
10.04.2023 23:22 9,8 C 8,9 C 5,0 C 92 % 1010,4 hPa 0,0 l/m 0 min 0 min 0 W/m 9,7 km/h (2 Bft) 97,87 %
10.04.2023 23:24 9,8 C 8,9 C 5,0 C 92 % 1010,3 hPa 0,0 l/m 0 min 0 min 0 W/m 9,7 km/h (2 Bft) 97,87 %
10.04.2023 23:26 9,8 C 8,9 C 5,0 C 92 % 1010,3 hPa 0,2 l/m 0 min 0 min 0 W/m 12,9 km/h (3 Bft) 95,83 %
10.04.2023 23:28 9,8 C 8,9 C 5,0 C 92 % 1010,3 hPa 0,0 l/m 0 min 0 min 0 W/m 19,3 km/h (3 Bft) 95,74 %
10.04.2023 23:30 9,8 C 8,9 C 5,0 C 92 % 1010,3 hPa 0,0 l/m 0 min 0 min 0 W/m 16,1 km/h (3 Bft) 95,74 %
10.04.2023 23:32 9,8 C 8,9 C 5,0 C 92 % 1010,2 hPa 0,0 l/m 0 min 2 min 0 W/m 12,9 km/h (3 Bft) 95,74 %
10.04.2023 23:34 9,8 C 8,9 C 5,0 C 92 % 1010,2 hPa 0,0 l/m 0 min 0 min 0 W/m 12,9 km/h (3 Bft) 100,00 %
10.04.2023 23:36 9,8 C 8,9 C 5,0 C 92 % 1010,3 hPa 0,0 l/m 0 min 0 min 0 W/m 19,3 km/h (3 Bft) 97,87 %
10.04.2023 23:38 9,7 C 8,3 C 5,0 C 92 % 1010,2 hPa 0,0 l/m 0 min 0 min 0 W/m 12,9 km/h (3 Bft) 97,83 %
10.04.2023 23:40 9,7 C 8,3 C 5,0 C 92 % 1010,2 hPa 0,0 l/m 0 min 0 min 0 W/m 19,3 km/h (3 Bft) 97,87 %
10.04.2023 23:42 9,7 C 8,3 C 5,0 C 92 % 1010,2 hPa 0,0 l/m 0 min 0 min 0 W/m 25,7 km/h (4 Bft) 97,37 %
10.04.2023 23:44 9,7 C 8,3 C 5,0 C 93 % 1010,1 hPa 0,0 l/m 0 min 0 min 0 W/m 16,1 km/h (3 Bft) 97,87 %
10.04.2023 23:46 9,7 C 8,3 C 5,0 C 93 % 1010,0 hPa 0,0 l/m 0 min 0 min 0 W/m 12,9 km/h (3 Bft) 97,87 %
10.04.2023 23:48 9,7 C 8,3 C 5,0 C 92 % 1010,1 hPa 0,0 l/m 0 min 0 min 0 W/m 12,9 km/h (3 Bft) 97,87 %
10.04.2023 23:50 9,7 C 8,3 C 5,0 C 93 % 1010,2 hPa 0,0 l/m 0 min 0 min 0 W/m 22,5 km/h (4 Bft) 97,87 %
10.04.2023 23:52 9,7 C 8,3 C 5,0 C 93 % 1010,2 hPa 0,0 l/m 0 min 0 min 0 W/m 19,3 km/h (3 Bft) 95,74 %
10.04.2023 23:54 9,6 C 8,3 C 5,0 C 93 % 1010,2 hPa 0,0 l/m 0 min 0 min 0 W/m 16,1 km/h (3 Bft) 95,74 %
10.04.2023 23:56 9,6 C 8,3 C 5,0 C 93 % 1010,3 hPa 0,0 l/m 0 min 0 min 0 W/m 16,1 km/h (3 Bft) 97,83 %
10.04.2023 23:58 9,6 C 8,3 C 5,0 C 93 % 1010,2 hPa 0,0 l/m 0 min 0 min 0 W/m 22,5 km/h (4 Bft) 97,87 %
_ Min-Zeit 06:24 05:30 05:46 15:46 23:46 - - - - 00:18 04:09
Minimum _ 6,4 C 5,6 C 2,2 C 46 % 1010,0 hPa - - - - 3,2 km/h (1 Bft) 28,57 %
_ Max-Zeit 15:42 15:38 15:32 22:20 00:46 18:24 12:12 18:12 11:08 17:22 00:38
Maximum _ 18,9 C 21,1 C 14,4 C 94 % 1023,1 hPa 0,2 l/m 4 min 4 min 669 W/m 45,1 km/h
S-SW (6 Bft)
100,00 %
Durchschnitt _ 11,7 C 11,5 C 7,2 C 71 % 1017,0 hPa #3,0 l/m #6:24 h #4:18 h 248 W/m 17,6 km/h (3 Bft) 96,98 %
© 2023 W. Hausmann